<?xml version='1.0' encoding='UTF-8'?><gpx version="1.1" creator="JPX - https://github.com/jenetics/jpx" xmlns="http://www.topografix.com/GPX/1/1"><trk><trkseg><trkpt lat="45.550051069998844" lon="10.419969873151603"><ele>190.0</ele><time>2026-04-20T14:35:27.001Z</time></trkpt><trkpt lat="45.55010868276598" lon="10.419866526491761"><ele>190.0</ele><time>2026-04-20T14:35:30Z</time></trkpt><trkpt lat="45.55016450106398" lon="10.41978597650737"><ele>190.0</ele><time>2026-04-20T14:35:32Z</time></trkpt><trkpt lat="45.550191391646656" lon="10.419653448545382"><ele>190.0</ele><time>2026-04-20T14:35:34Z</time></trkpt><trkpt lat="45.55024533890211" lon="10.419562504517904"><ele>190.0</ele><time>2026-04-20T14:35:36Z</time></trkpt><trkpt lat="45.55032030594589" lon="10.419472932064474"><ele>189.8</ele><time>2026-04-20T14:35:38Z</time></trkpt><trkpt lat="45.55038607696319" lon="10.419372364969634"><ele>189.6</ele><time>2026-04-20T14:35:40Z</time></trkpt><trkpt lat="45.55046200966267" lon="10.41928603776157"><ele>189.39999999999998</ele><time>2026-04-20T14:35:42Z</time></trkpt><trkpt lat="45.55052605033523" lon="10.419182750635228"><ele>189.2</ele><time>2026-04-20T14:35:44Z</time></trkpt><trkpt lat="45.550610799943605" lon="10.419089715783782"><ele>189.0</ele><time>2026-04-20T14:35:46Z</time></trkpt><trkpt lat="45.55068662445363" lon="10.418977600513271"><ele>189.0</ele><time>2026-04-20T14:35:48Z</time></trkpt><trkpt lat="45.5507589849794" lon="10.418871245820933"><ele>189.0</ele><time>2026-04-20T14:35:50Z</time></trkpt><trkpt lat="45.550830941423385" lon="10.418766825088696"><ele>189.0</ele><time>2026-04-20T14:35:52Z</time></trkpt><trkpt lat="45.55089949639982" lon="10.418649756493714"><ele>189.0</ele><time>2026-04-20T14:35:54Z</time></trkpt><trkpt lat="45.55096871499926" lon="10.41854402482087"><ele>189.0</ele><time>2026-04-20T14:35:56Z</time></trkpt><trkpt lat="45.551046059377015" lon="10.41843824610051"><ele>189.0</ele><time>2026-04-20T14:35:58Z</time></trkpt><trkpt lat="45.55111940105066" lon="10.41833343934477"><ele>189.0</ele><time>2026-04-20T14:36:00Z</time></trkpt><trkpt lat="45.55119071885643" lon="10.41822096653713"><ele>189.0</ele><time>2026-04-20T14:36:02Z</time></trkpt><trkpt lat="45.55126799469512" lon="10.418098743684743"><ele>189.0</ele><time>2026-04-20T14:36:04Z</time></trkpt><trkpt lat="45.551346465922265" lon="10.41797361111459"><ele>189.0</ele><time>2026-04-20T14:36:06Z</time></trkpt><trkpt lat="45.55141288104019" lon="10.417836755837298"><ele>189.0</ele><time>2026-04-20T14:36:08Z</time></trkpt><trkpt lat="45.551473399033895" lon="10.41770628918747"><ele>189.0</ele><time>2026-04-20T14:36:10Z</time></trkpt><trkpt lat="45.551513164340605" lon="10.417634707421975"><ele>189.0</ele><time>2026-04-20T14:36:11Z</time></trkpt><trkpt lat="45.551556508357905" lon="10.417464664238274"><ele>189.0</ele><time>2026-04-20T14:36:13Z</time></trkpt><trkpt lat="45.55155596105442" lon="10.417350813679423"><ele>189.0</ele><time>2026-04-20T14:36:14Z</time></trkpt><trkpt lat="45.55159568335222" lon="10.417190763007726"><ele>188.39999999999998</ele><time>2026-04-20T14:36:16Z</time></trkpt><trkpt lat="45.55159490569382" lon="10.417100497956456"><ele>187.8</ele><time>2026-04-20T14:36:17Z</time></trkpt><trkpt lat="45.55162197237221" lon="10.416938125498552"><ele>187.2</ele><time>2026-04-20T14:36:19Z</time></trkpt><trkpt lat="45.551639945963174" lon="10.416792052691282"><ele>186.60000000000002</ele><time>2026-04-20T14:36:21Z</time></trkpt><trkpt lat="45.55167101150297" lon="10.416653488232171"><ele>186.0</ele><time>2026-04-20T14:36:23Z</time></trkpt><trkpt lat="45.55172157891855" lon="10.416558348605596"><ele>186.0</ele><time>2026-04-20T14:36:25Z</time></trkpt><trkpt lat="45.551684309841626" lon="10.416465078520014"><ele>186.0</ele><time>2026-04-20T14:36:29Z</time></trkpt><trkpt lat="45.55168922946321" lon="10.416350559086782"><ele>186.0</ele><time>2026-04-20T14:36:31Z</time></trkpt><trkpt lat="45.551696703035326" lon="10.416235332406417"><ele>186.0</ele><time>2026-04-20T14:36:33Z</time></trkpt><trkpt lat="45.55169500320058" lon="10.416095527545881"><ele>186.0</ele><time>2026-04-20T14:36:35Z</time></trkpt><trkpt lat="45.551728268677046" lon="10.415973231822363"><ele>186.0</ele><time>2026-04-20T14:36:37Z</time></trkpt><trkpt lat="45.551764333150295" lon="10.415839398871409"><ele>186.0</ele><time>2026-04-20T14:36:39Z</time></trkpt><trkpt lat="45.55180576267507" lon="10.415701618253221"><ele>186.0</ele><time>2026-04-20T14:36:41Z</time></trkpt><trkpt lat="45.55183141065287" lon="10.415555689412018"><ele>186.0</ele><time>2026-04-20T14:36:43Z</time></trkpt><trkpt lat="45.551868647467835" lon="10.415406433386526"><ele>186.0</ele><time>2026-04-20T14:36:45Z</time></trkpt><trkpt lat="45.55189634495697" lon="10.41524789224621"><ele>186.0</ele><time>2026-04-20T14:36:47Z</time></trkpt><trkpt lat="45.55191012609852" lon="10.415102913679974"><ele>186.20000000000002</ele><time>2026-04-20T14:36:49Z</time></trkpt><trkpt lat="45.55193363999765" lon="10.41495794894498"><ele>186.4</ele><time>2026-04-20T14:36:51Z</time></trkpt><trkpt lat="45.55194502591007" lon="10.414812583009603"><ele>186.6</ele><time>2026-04-20T14:36:53Z</time></trkpt><trkpt lat="45.55198267157147" lon="10.414657087949868"><ele>186.8</ele><time>2026-04-20T14:36:55Z</time></trkpt><trkpt lat="45.55199047335712" lon="10.414491681964751"><ele>187.0</ele><time>2026-04-20T14:36:57Z</time></trkpt><trkpt lat="45.55203124465444" lon="10.414323019852478"><ele>187.0</ele><time>2026-04-20T14:36:59Z</time></trkpt><trkpt lat="45.55204447613512" lon="10.414142084829045"><ele>187.0</ele><time>2026-04-20T14:37:01Z</time></trkpt><trkpt lat="45.55208218099803" lon="10.413979136286411"><ele>187.0</ele><time>2026-04-20T14:37:03Z</time></trkpt><trkpt lat="45.55210944152696" lon="10.413895385496334"><ele>187.0</ele><time>2026-04-20T14:37:04Z</time></trkpt><trkpt lat="45.55215449904237" lon="10.413743935779497"><ele>187.0</ele><time>2026-04-20T14:37:06Z</time></trkpt><trkpt lat="45.55222063370191" lon="10.413607042982557"><ele>187.2</ele><time>2026-04-20T14:37:08Z</time></trkpt><trkpt lat="45.552295135922385" lon="10.413533260846831"><ele>187.39999999999998</ele><time>2026-04-20T14:37:10Z</time></trkpt><trkpt lat="45.552367897668695" lon="10.413435961118868"><ele>187.60000000000002</ele><time>2026-04-20T14:37:12Z</time></trkpt><trkpt lat="45.55244439085853" lon="10.413341463282153"><ele>187.8</ele><time>2026-04-20T14:37:14Z</time></trkpt><trkpt lat="45.55251846475985" lon="10.41323632138511"><ele>188.0</ele><time>2026-04-20T14:37:16Z</time></trkpt><trkpt lat="45.55254652400972" lon="10.41310674026623"><ele>188.0</ele><time>2026-04-20T14:37:18Z</time></trkpt><trkpt lat="45.55253256894124" lon="10.412990858658176"><ele>188.0</ele><time>2026-04-20T14:37:20Z</time></trkpt><trkpt lat="45.55246886009929" lon="10.412922150395836"><ele>188.0</ele><time>2026-04-20T14:37:22Z</time></trkpt><trkpt lat="45.55238458931467" lon="10.412845279851398"><ele>188.0</ele><time>2026-04-20T14:37:24Z</time></trkpt><trkpt lat="45.55230924363876" lon="10.41274349400902"><ele>188.0</ele><time>2026-04-20T14:37:26Z</time></trkpt><trkpt lat="45.55224244649356" lon="10.412652451458204"><ele>188.0</ele><time>2026-04-20T14:37:28Z</time></trkpt><trkpt lat="45.5521803870811" lon="10.41256419088409"><ele>188.0</ele><time>2026-04-20T14:37:30Z</time></trkpt><trkpt lat="45.55211701105582" lon="10.412458598974064"><ele>188.0</ele><time>2026-04-20T14:37:32Z</time></trkpt><trkpt lat="45.55206617981422" lon="10.412347047001111"><ele>188.0</ele><time>2026-04-20T14:37:34Z</time></trkpt><trkpt lat="45.552008843518564" lon="10.41224282167916"><ele>188.0</ele><time>2026-04-20T14:37:36Z</time></trkpt><trkpt lat="45.551939052426064" lon="10.412145179606451"><ele>187.33333333333331</ele><time>2026-04-20T14:37:38Z</time></trkpt><trkpt lat="45.551891597578546" lon="10.412047310323448"><ele>186.66666666666666</ele><time>2026-04-20T14:37:40Z</time></trkpt><trkpt lat="45.5518797352698" lon="10.411924359924493"><ele>186.0</ele><time>2026-04-20T14:37:42Z</time></trkpt><trkpt lat="45.55194134599113" lon="10.411822746052188"><ele>185.33333333333334</ele><time>2026-04-20T14:37:44Z</time></trkpt><trkpt lat="45.55200421133089" lon="10.411829657702711"><ele>184.66666666666669</ele><time>2026-04-20T14:37:45Z</time></trkpt><trkpt lat="45.5520854082934" lon="10.411774011607813"><ele>184.0</ele><time>2026-04-20T14:37:47Z</time></trkpt><trkpt lat="45.552171355756556" lon="10.411697867906666"><ele>184.0</ele><time>2026-04-20T14:37:49Z</time></trkpt><trkpt lat="45.55225841992514" lon="10.411612587856235"><ele>184.0</ele><time>2026-04-20T14:37:51Z</time></trkpt><trkpt lat="45.55235679447352" lon="10.41152179478556"><ele>184.0</ele><time>2026-04-20T14:37:53Z</time></trkpt><trkpt lat="45.5524526233421" lon="10.411428804934891"><ele>184.0</ele><time>2026-04-20T14:37:55Z</time></trkpt><trkpt lat="45.55254463345825" lon="10.411341528330682"><ele>184.0</ele><time>2026-04-20T14:37:57Z</time></trkpt><trkpt lat="45.552631339116296" lon="10.411255217868625"><ele>184.0</ele><time>2026-04-20T14:37:59Z</time></trkpt><trkpt lat="45.55272782272609" lon="10.41116410940815"><ele>184.0</ele><time>2026-04-20T14:38:01Z</time></trkpt><trkpt lat="45.55282871658558" lon="10.411065826573937"><ele>184.0</ele><time>2026-04-20T14:38:03Z</time></trkpt><trkpt lat="45.55292563963398" lon="10.410961723821284"><ele>184.0</ele><time>2026-04-20T14:38:05Z</time></trkpt><trkpt lat="45.553019833611046" lon="10.41087003931074"><ele>184.0</ele><time>2026-04-20T14:38:07Z</time></trkpt><trkpt lat="45.55310842249175" lon="10.410796598307098"><ele>184.0</ele><time>2026-04-20T14:38:09Z</time></trkpt><trkpt lat="45.55320234915552" lon="10.410719709973723"><ele>184.0</ele><time>2026-04-20T14:38:11Z</time></trkpt><trkpt lat="45.55331088901742" lon="10.41066483715004"><ele>184.0</ele><time>2026-04-20T14:38:13Z</time></trkpt><trkpt lat="45.55340866001865" lon="10.410576771031169"><ele>184.0</ele><time>2026-04-20T14:38:15Z</time></trkpt><trkpt lat="45.55350435172841" lon="10.41048600033547"><ele>184.0</ele><time>2026-04-20T14:38:17Z</time></trkpt><trkpt lat="45.5535995410249" lon="10.410393315614073"><ele>184.0</ele><time>2026-04-20T14:38:19Z</time></trkpt><trkpt lat="45.55368484482319" lon="10.410293640905378"><ele>184.0</ele><time>2026-04-20T14:38:21Z</time></trkpt><trkpt lat="45.55378498982696" lon="10.41023362121813"><ele>184.0</ele><time>2026-04-20T14:38:23Z</time></trkpt><trkpt lat="45.55386983758129" lon="10.410167982906625"><ele>184.0</ele><time>2026-04-20T14:38:25Z</time></trkpt><trkpt lat="45.553948670651124" lon="10.410108570299535"><ele>185.0</ele><time>2026-04-20T14:38:27Z</time></trkpt></trkseg><trkseg><trkpt lat="45.557287758530826" lon="10.40898571822721"><ele>200.00000000000003</ele><time>2026-04-20T14:40:22Z</time></trkpt><trkpt lat="45.55734025551363" lon="10.409041533512372"><ele>200.0</ele><time>2026-04-20T14:40:24Z</time></trkpt><trkpt lat="45.55739661416538" lon="10.40912597882226"><ele>200.0</ele><time>2026-04-20T14:40:27Z</time></trkpt><trkpt lat="45.55746750121994" lon="10.409222791947336"><ele>200.0</ele><time>2026-04-20T14:40:30Z</time></trkpt><trkpt lat="45.557522558707696" lon="10.409281733377489"><ele>200.00000000000003</ele><time>2026-04-20T14:40:32Z</time></trkpt><trkpt lat="45.55758885189477" lon="10.409357522562507"><ele>200.0</ele><time>2026-04-20T14:40:35Z</time></trkpt><trkpt lat="45.55765006905752" lon="10.409420611777666"><ele>200.00000000000003</ele><time>2026-04-20T14:40:38Z</time></trkpt><trkpt lat="45.55771112614761" lon="10.409468432261345"><ele>200.0</ele><time>2026-04-20T14:40:43Z</time></trkpt><trkpt lat="45.557780695043135" lon="10.409515126847127"><ele>200.0</ele><time>2026-04-20T14:40:48Z</time></trkpt><trkpt lat="45.557839912229674" lon="10.409565952130885"><ele>200.0</ele><time>2026-04-20T14:40:51Z</time></trkpt><trkpt lat="45.55790377418062" lon="10.40963945784282"><ele>200.00000000000003</ele><time>2026-04-20T14:40:55Z</time></trkpt><trkpt lat="45.55797924983019" lon="10.409679987033881"><ele>200.0</ele><time>2026-04-20T14:40:59Z</time></trkpt><trkpt lat="45.55878486259812" lon="10.410619398610075"><ele>203.71428571428572</ele><time>2026-04-20T14:42:03Z</time></trkpt><trkpt lat="45.55883486986163" lon="10.410682689320845"><ele>207.42857142857144</ele><time>2026-04-20T14:42:06Z</time></trkpt><trkpt lat="45.558916308118405" lon="10.41072415164953"><ele>211.14285714285717</ele><time>2026-04-20T14:42:10Z</time></trkpt><trkpt lat="45.558974528245194" lon="10.410780500423"><ele>214.85714285714286</ele><time>2026-04-20T14:42:13Z</time></trkpt><trkpt lat="45.55904353744254" lon="10.410834785857187"><ele>218.57142857142856</ele><time>2026-04-20T14:42:17Z</time></trkpt><trkpt lat="45.559116124951096" lon="10.410889985295983"><ele>222.2857142857143</ele><time>2026-04-20T14:42:21Z</time></trkpt><trkpt lat="45.559174113593706" lon="10.410927828121196"><ele>226.0</ele><time>2026-04-20T14:42:24Z</time></trkpt><trkpt lat="45.55923612768627" lon="10.410955109296495"><ele>226.0</ele><time>2026-04-20T14:42:27Z</time></trkpt><trkpt lat="45.559305983342206" lon="10.411013700791829"><ele>226.0</ele><time>2026-04-20T14:42:31Z</time></trkpt><trkpt lat="45.559383533575115" lon="10.411062963936127"><ele>226.0</ele><time>2026-04-20T14:42:35Z</time></trkpt><trkpt lat="45.55944428878136" lon="10.411088915616558"><ele>226.0</ele><time>2026-04-20T14:42:38Z</time></trkpt><trkpt lat="45.55951442821543" lon="10.41111432747501"><ele>226.0</ele><time>2026-04-20T14:42:41Z</time></trkpt><trkpt lat="45.559575300793995" lon="10.41117130933361"><ele>226.0</ele><time>2026-04-20T14:42:44Z</time></trkpt><trkpt lat="45.559636166026635" lon="10.411212341497773"><ele>226.0</ele><time>2026-04-20T14:42:47Z</time></trkpt><trkpt lat="45.559696402269715" lon="10.411246711444742"><ele>225.49999999999997</ele><time>2026-04-20T14:42:50Z</time></trkpt><trkpt lat="45.55976303006221" lon="10.411285796709127"><ele>225.0</ele><time>2026-04-20T14:42:54Z</time></trkpt><trkpt lat="45.55983899122608" lon="10.411318062095908"><ele>224.5</ele><time>2026-04-20T14:42:58Z</time></trkpt><trkpt lat="45.55991159399766" lon="10.411333518283076"><ele>224.0</ele><time>2026-04-20T14:43:02Z</time></trkpt><trkpt lat="45.55998743658782" lon="10.41133397255143"><ele>223.49999999999997</ele><time>2026-04-20T14:43:06Z</time></trkpt><trkpt lat="45.560070870907374" lon="10.411326397979304"><ele>223.0</ele><time>2026-04-20T14:43:10Z</time></trkpt><trkpt lat="45.560141764823435" lon="10.411341567339305"><ele>223.0</ele><time>2026-04-20T14:43:13Z</time></trkpt><trkpt lat="45.560225491201216" lon="10.411336074023493"><ele>223.0</ele><time>2026-04-20T14:43:17Z</time></trkpt><trkpt lat="45.56029374943783" lon="10.411336413879114"><ele>223.0</ele><time>2026-04-20T14:43:20Z</time></trkpt><trkpt lat="45.560369074297874" lon="10.411350996734914"><ele>223.0</ele><time>2026-04-20T14:43:23Z</time></trkpt><trkpt lat="45.56043844013428" lon="10.411354439141517"><ele>223.0</ele><time>2026-04-20T14:43:26Z</time></trkpt><trkpt lat="45.56050473630912" lon="10.411376520005554"><ele>223.0</ele><time>2026-04-20T14:43:29Z</time></trkpt><trkpt lat="45.56056767468613" lon="10.411385415225237"><ele>223.0</ele><time>2026-04-20T14:43:32Z</time></trkpt><trkpt lat="45.56064357515834" lon="10.411376344512657"><ele>225.57142857142856</ele><time>2026-04-20T14:43:36Z</time></trkpt><trkpt lat="45.560718498934015" lon="10.411405021185056"><ele>228.14285714285714</ele><time>2026-04-20T14:43:40Z</time></trkpt><trkpt lat="45.56076753901427" lon="10.411476691134784"><ele>230.71428571428572</ele><time>2026-04-20T14:43:44Z</time></trkpt><trkpt lat="45.56080598018223" lon="10.411577196519152"><ele>233.28571428571428</ele><time>2026-04-20T14:43:49Z</time></trkpt><trkpt lat="45.56085756512575" lon="10.411648712999114"><ele>235.8571428571429</ele><time>2026-04-20T14:43:53Z</time></trkpt><trkpt lat="45.56089616100012" lon="10.41172388105141"><ele>238.42857142857144</ele><time>2026-04-20T14:43:57Z</time></trkpt><trkpt lat="45.56093043980099" lon="10.411816484660381"><ele>241.0</ele><time>2026-04-20T14:44:01Z</time></trkpt><trkpt lat="45.56097189951707" lon="10.41188556901308"><ele>241.0</ele><time>2026-04-20T14:44:05Z</time></trkpt><trkpt lat="45.56100078103138" lon="10.411972358320474"><ele>241.00000000000003</ele><time>2026-04-20T14:44:09Z</time></trkpt><trkpt lat="45.561032454703124" lon="10.412072272082385"><ele>241.0</ele><time>2026-04-20T14:45:04Z</time></trkpt><trkpt lat="45.5610662367342" lon="10.412168482729555"><ele>241.0</ele><time>2026-04-20T14:45:09Z</time></trkpt><trkpt lat="45.56109221858449" lon="10.412268983985129"><ele>241.00000000000003</ele><time>2026-04-20T14:45:13Z</time></trkpt><trkpt lat="45.56112539766753" lon="10.412352352703172"><ele>241.0</ele><time>2026-04-20T14:45:17Z</time></trkpt><trkpt lat="45.5611492051536" lon="10.412443586469468"><ele>241.0</ele><time>2026-04-20T14:45:21Z</time></trkpt><trkpt lat="45.5611780684519" lon="10.412544724831927"><ele>241.0</ele><time>2026-04-20T14:45:25Z</time></trkpt><trkpt lat="45.56119421887983" lon="10.41264567436811"><ele>241.00000000000003</ele><time>2026-04-20T14:45:29Z</time></trkpt><trkpt lat="45.56119070058751" lon="10.412739801252494"><ele>241.0</ele><time>2026-04-20T14:45:33Z</time></trkpt><trkpt lat="45.56117401369793" lon="10.412831698238287"><ele>241.0</ele><time>2026-04-20T14:45:37Z</time></trkpt><trkpt lat="45.56117354730002" lon="10.412924928572354"><ele>241.00000000000003</ele><time>2026-04-20T14:45:40Z</time></trkpt><trkpt lat="45.56116331809935" lon="10.413024726409503"><ele>241.0</ele><time>2026-04-20T14:45:44Z</time></trkpt><trkpt lat="45.56122277981211" lon="10.413073293300812"><ele>241.0</ele><time>2026-04-20T14:46:26Z</time></trkpt><trkpt lat="45.561289339881" lon="10.413113606370699"><ele>244.99999999999997</ele><time>2026-04-20T14:46:34Z</time></trkpt><trkpt lat="45.56136098059077" lon="10.413128295616465"><ele>249.0</ele><time>2026-04-20T14:46:40Z</time></trkpt><trkpt lat="45.561425772841396" lon="10.413117737296595"><ele>253.0</ele><time>2026-04-20T14:46:44Z</time></trkpt><trkpt lat="45.56155432289574" lon="10.413079978596127"><ele>257.0</ele><time>2026-04-20T14:47:05Z</time></trkpt><trkpt lat="45.561593594413054" lon="10.413001306547638"><ele>261.0</ele><time>2026-04-20T14:47:11Z</time></trkpt><trkpt lat="45.561631714549456" lon="10.412926414202172"><ele>265.0</ele><time>2026-04-20T14:47:16Z</time></trkpt><trkpt lat="45.56169459564476" lon="10.412917965101036"><ele>264.99999999999994</ele><time>2026-04-20T14:47:22Z</time></trkpt><trkpt lat="45.56176387634457" lon="10.412974263361104"><ele>265.0</ele><time>2026-04-20T14:47:28Z</time></trkpt><trkpt lat="45.561809159991746" lon="10.413043798903482"><ele>265.0</ele><time>2026-04-20T14:47:33Z</time></trkpt><trkpt lat="45.561844285481946" lon="10.413131698067795"><ele>265.0</ele><time>2026-04-20T14:47:38Z</time></trkpt><trkpt lat="45.56187850505555" lon="10.41323697430738"><ele>265.0</ele><time>2026-04-20T14:47:44Z</time></trkpt><trkpt lat="45.56185448994604" lon="10.413322481918508"><ele>264.99999999999994</ele><time>2026-04-20T14:47:49Z</time></trkpt><trkpt lat="45.56181398126846" lon="10.413393884059728"><ele>265.0</ele><time>2026-04-20T14:47:53Z</time></trkpt><trkpt lat="45.56176155161142" lon="10.41345133574695"><ele>265.57142857142856</ele><time>2026-04-20T14:47:56Z</time></trkpt><trkpt lat="45.561688111249055" lon="10.413459137205518"><ele>266.1428571428571</ele><time>2026-04-20T14:48:00Z</time></trkpt><trkpt lat="45.5616177439301" lon="10.413439323982285"><ele>266.7142857142857</ele><time>2026-04-20T14:48:04Z</time></trkpt><trkpt lat="45.561655717862095" lon="10.41348231489434"><ele>267.2857142857143</ele><time>2026-04-20T14:51:54Z</time></trkpt><trkpt lat="45.561741892835784" lon="10.413477986456053"><ele>267.8571428571429</ele><time>2026-04-20T14:51:57Z</time></trkpt><trkpt lat="45.56180411447677" lon="10.41343629726126"><ele>268.42857142857144</ele><time>2026-04-20T14:51:59Z</time></trkpt><trkpt lat="45.56185769678059" lon="10.413328460136132"><ele>269.0</ele><time>2026-04-20T14:52:01Z</time></trkpt><trkpt lat="45.561898475957655" lon="10.413241996578206"><ele>269.0</ele><time>2026-04-20T14:52:04Z</time></trkpt><trkpt lat="45.561952048750875" lon="10.413171291118063"><ele>269.0</ele><time>2026-04-20T14:52:09Z</time></trkpt><trkpt lat="45.56203359172295" lon="10.413210921002014"><ele>269.0</ele><time>2026-04-20T14:52:13Z</time></trkpt><trkpt lat="45.56210276467561" lon="10.413202127016682"><ele>269.0</ele><time>2026-04-20T14:52:16Z</time></trkpt><trkpt lat="45.56218738816166" lon="10.41315159780924"><ele>269.0</ele><time>2026-04-20T14:52:19Z</time></trkpt><trkpt lat="45.562269957110026" lon="10.41314203308704"><ele>269.0</ele><time>2026-04-20T14:52:22Z</time></trkpt><trkpt lat="45.56235030546067" lon="10.413119138870048"><ele>270.6666666666667</ele><time>2026-04-20T14:52:25Z</time></trkpt><trkpt lat="45.562422915849275" lon="10.41312831407253"><ele>272.33333333333337</ele><time>2026-04-20T14:52:28Z</time></trkpt><trkpt lat="45.562492966101104" lon="10.413112373937278"><ele>274.0</ele><time>2026-04-20T14:52:30Z</time></trkpt><trkpt lat="45.56256789613755" lon="10.413145060032234"><ele>275.6666666666667</ele><time>2026-04-20T14:52:33Z</time></trkpt><trkpt lat="45.56263526385201" lon="10.413169609627504"><ele>277.3333333333333</ele><time>2026-04-20T14:52:35Z</time></trkpt><trkpt lat="45.56269605017349" lon="10.41319946666211"><ele>279.0</ele><time>2026-04-20T14:52:37Z</time></trkpt><trkpt lat="45.56278978679011" lon="10.413197883681407"><ele>278.99999999999994</ele><time>2026-04-20T14:52:40Z</time></trkpt><trkpt lat="45.56285523961904" lon="10.413234258428023"><ele>279.0</ele><time>2026-04-20T14:52:42Z</time></trkpt><trkpt lat="45.56291571820316" lon="10.41329023983056"><ele>279.0</ele><time>2026-04-20T14:52:44Z</time></trkpt><trkpt lat="45.562956257228564" lon="10.41335904197833"><ele>279.0</ele><time>2026-04-20T14:52:46Z</time></trkpt><trkpt lat="45.56301807326212" lon="10.41343759950588"><ele>279.0</ele><time>2026-04-20T14:52:48Z</time></trkpt><trkpt lat="45.563070204107376" lon="10.413494401014493"><ele>278.99999999999994</ele><time>2026-04-20T14:52:50Z</time></trkpt><trkpt lat="45.56313150047291" lon="10.413568734254687"><ele>279.0</ele><time>2026-04-20T14:52:52Z</time></trkpt><trkpt lat="45.56319023415413" lon="10.413636262863482"><ele>279.5</ele><time>2026-04-20T14:52:54Z</time></trkpt><trkpt lat="45.56323636806858" lon="10.413744130968764"><ele>280.0</ele><time>2026-04-20T14:52:57Z</time></trkpt><trkpt lat="45.56329544966043" lon="10.413782991334363"><ele>280.5</ele><time>2026-04-20T14:53:01Z</time></trkpt><trkpt lat="45.56337471039743" lon="10.413845213982267"><ele>281.0</ele><time>2026-04-20T14:53:05Z</time></trkpt><trkpt lat="45.563435385819595" lon="10.41389874474564"><ele>281.5</ele><time>2026-04-20T14:53:07Z</time></trkpt><trkpt lat="45.56350211658816" lon="10.41394430690742"><ele>282.0</ele><time>2026-04-20T14:53:09Z</time></trkpt><trkpt lat="45.56354826374393" lon="10.41402282069438"><ele>282.0</ele><time>2026-04-20T14:53:11Z</time></trkpt><trkpt lat="45.56358222976901" lon="10.414138155845425"><ele>282.0</ele><time>2026-04-20T14:53:14Z</time></trkpt><trkpt lat="45.563606351564914" lon="10.414256115740061"><ele>282.0</ele><time>2026-04-20T14:53:17Z</time></trkpt><trkpt lat="45.56362934838829" lon="10.414347311663121"><ele>282.0</ele><time>2026-04-20T14:53:19Z</time></trkpt><trkpt lat="45.56363473466234" lon="10.41443765797683"><ele>282.0</ele><time>2026-04-20T14:53:21Z</time></trkpt><trkpt lat="45.563637752426615" lon="10.41454076335576"><ele>282.0</ele><time>2026-04-20T14:53:23Z</time></trkpt><trkpt lat="45.563659214113386" lon="10.414640115521186"><ele>283.6666666666667</ele><time>2026-04-20T14:53:25Z</time></trkpt><trkpt lat="45.563660084123924" lon="10.414738726165934"><ele>285.3333333333333</ele><time>2026-04-20T14:53:27Z</time></trkpt><trkpt lat="45.56367509532523" lon="10.414868897969676"><ele>287.0</ele><time>2026-04-20T14:53:30Z</time></trkpt><trkpt lat="45.563687791142804" lon="10.414983099708847"><ele>288.66666666666663</ele><time>2026-04-20T14:53:33Z</time></trkpt><trkpt lat="45.56368560701658" lon="10.415095401951568"><ele>290.3333333333333</ele><time>2026-04-20T14:53:36Z</time></trkpt><trkpt lat="45.563683523548704" lon="10.41518668604041"><ele>292.0</ele><time>2026-04-20T14:53:39Z</time></trkpt><trkpt lat="45.5636818522348" lon="10.415308946067093"><ele>292.42857142857144</ele><time>2026-04-20T14:53:42Z</time></trkpt><trkpt lat="45.56370277516363" lon="10.41539745310569"><ele>292.8571428571429</ele><time>2026-04-20T14:53:44Z</time></trkpt><trkpt lat="45.563741430446285" lon="10.415468735145714"><ele>293.28571428571433</ele><time>2026-04-20T14:53:46Z</time></trkpt><trkpt lat="45.56381680344906" lon="10.415494739206812"><ele>293.7142857142857</ele><time>2026-04-20T14:53:49Z</time></trkpt><trkpt lat="45.56388453989996" lon="10.415501678451752"><ele>294.14285714285717</ele><time>2026-04-20T14:53:52Z</time></trkpt><trkpt lat="45.563956897385815" lon="10.415510666756616"><ele>294.5714285714286</ele><time>2026-04-20T14:53:55Z</time></trkpt><trkpt lat="45.5640209324558" lon="10.415521545372773"><ele>295.0</ele><time>2026-04-20T14:53:58Z</time></trkpt><trkpt lat="45.564086286537794" lon="10.415608835257142"><ele>295.0</ele><time>2026-04-20T14:54:01Z</time></trkpt><trkpt lat="45.564091002127405" lon="10.415724963936425"><ele>295.0</ele><time>2026-04-20T14:54:03Z</time></trkpt><trkpt lat="45.564127593721196" lon="10.415802844026816"><ele>295.0</ele><time>2026-04-20T14:54:05Z</time></trkpt><trkpt lat="45.56418140002361" lon="10.41586161583025"><ele>295.0</ele><time>2026-04-20T14:54:08Z</time></trkpt><trkpt lat="45.564276532328776" lon="10.41587972516175"><ele>295.0</ele><time>2026-04-20T14:54:11Z</time></trkpt><trkpt lat="45.5643581677377" lon="10.415831239647986"><ele>295.0</ele><time>2026-04-20T14:54:14Z</time></trkpt><trkpt lat="45.564400639669735" lon="10.415732275085453"><ele>295.0</ele><time>2026-04-20T14:54:17Z</time></trkpt><trkpt lat="45.56440601318634" lon="10.415627844743815"><ele>295.0</ele><time>2026-04-20T14:54:21Z</time></trkpt><trkpt lat="45.56441805273336" lon="10.415535371731622"><ele>295.0</ele><time>2026-04-20T14:54:26Z</time></trkpt><trkpt lat="45.56443388929568" lon="10.415431678209476"><ele>295.0</ele><time>2026-04-20T14:54:31Z</time></trkpt><trkpt lat="45.56448618667075" lon="10.415362638046519"><ele>295.0</ele><time>2026-04-20T14:54:36Z</time></trkpt><trkpt lat="45.56452423696065" lon="10.415514824048183"><ele>295.0</ele><time>2026-04-20T14:54:44Z</time></trkpt><trkpt lat="45.56450862359336" lon="10.415613479492276"><ele>295.00000000000006</ele><time>2026-04-20T14:54:49Z</time></trkpt><trkpt lat="45.56450158617751" lon="10.415719901278047"><ele>295.0</ele><time>2026-04-20T14:54:54Z</time></trkpt><trkpt lat="45.5645146560601" lon="10.415820593810212"><ele>295.0</ele><time>2026-04-20T14:54:59Z</time></trkpt><trkpt lat="45.564537212695505" lon="10.415922873212901"><ele>295.0</ele><time>2026-04-20T14:55:04Z</time></trkpt><trkpt lat="45.56457370723296" lon="10.416006028466102"><ele>295.0</ele><time>2026-04-20T14:55:10Z</time></trkpt><trkpt lat="45.564618001144666" lon="10.416079058965241"><ele>295.00000000000006</ele><time>2026-04-20T14:55:15Z</time></trkpt><trkpt lat="45.56464918161667" lon="10.41616813969266"><ele>295.0</ele><time>2026-04-20T14:55:21Z</time></trkpt><trkpt lat="45.56468915139824" lon="10.41625600289181"><ele>296.7142857142857</ele><time>2026-04-20T14:55:26Z</time></trkpt><trkpt lat="45.56471716498157" lon="10.416338627296827"><ele>298.42857142857144</ele><time>2026-04-20T14:55:52Z</time></trkpt><trkpt lat="45.56473695174676" lon="10.41643778112398"><ele>300.1428571428571</ele><time>2026-04-20T14:56:08Z</time></trkpt><trkpt lat="45.56475395541799" lon="10.416527328928566"><ele>301.8571428571429</ele><time>2026-04-20T14:56:13Z</time></trkpt><trkpt lat="45.56477774228014" lon="10.416616131494767"><ele>303.57142857142856</ele><time>2026-04-20T14:56:17Z</time></trkpt><trkpt lat="45.56480662090934" lon="10.416711321951771"><ele>305.2857142857143</ele><time>2026-04-20T14:56:23Z</time></trkpt><trkpt lat="45.56484792684102" lon="10.416781693478466"><ele>307.0</ele><time>2026-04-20T14:56:27Z</time></trkpt><trkpt lat="45.564909837207175" lon="10.416749977335385"><ele>307.0</ele><time>2026-04-20T14:56:51Z</time></trkpt><trkpt lat="45.56497964387452" lon="10.41676386917836"><ele>307.0</ele><time>2026-04-20T14:56:55Z</time></trkpt><trkpt lat="45.565048809184084" lon="10.416732957647259"><ele>307.0</ele><time>2026-04-20T14:56:59Z</time></trkpt><trkpt lat="45.565111790314745" lon="10.416758971348372"><ele>307.0</ele><time>2026-04-20T14:57:02Z</time></trkpt><trkpt lat="45.56517557446009" lon="10.416856577121873"><ele>307.0</ele><time>2026-04-20T14:57:06Z</time></trkpt><trkpt lat="45.565246711488065" lon="10.416965295039333"><ele>307.0</ele><time>2026-04-20T14:57:09Z</time></trkpt><trkpt lat="45.56529084407977" lon="10.417068750800658"><ele>309.0</ele><time>2026-04-20T14:57:11Z</time></trkpt><trkpt lat="45.56532418691844" lon="10.417185305975387"><ele>311.0</ele><time>2026-04-20T14:57:13Z</time></trkpt><trkpt lat="45.56534661063067" lon="10.417316199700881"><ele>313.0</ele><time>2026-04-20T14:57:15Z</time></trkpt><trkpt lat="45.565368905516294" lon="10.417432325359718"><ele>315.0</ele><time>2026-04-20T14:57:17Z</time></trkpt><trkpt lat="45.5654266288939" lon="10.417562221937205"><ele>317.0</ele><time>2026-04-20T14:57:19Z</time></trkpt><trkpt lat="45.56544751811087" lon="10.417663538919834"><ele>319.0</ele><time>2026-04-20T14:57:20Z</time></trkpt><trkpt lat="45.565479488454045" lon="10.417743610194611"><ele>314.2</ele><time>2026-04-20T14:57:21Z</time></trkpt><trkpt lat="45.56553624874672" lon="10.417811146913843"><ele>309.4</ele><time>2026-04-20T14:57:22Z</time></trkpt><trkpt lat="45.565671706456996" lon="10.417872837116008"><ele>304.6</ele><time>2026-04-20T14:57:24Z</time></trkpt><trkpt lat="45.565740299251445" lon="10.417884333474994"><ele>299.8</ele><time>2026-04-20T14:57:25Z</time></trkpt><trkpt lat="45.5658327557929" lon="10.417917842084588"><ele>295.0</ele><time>2026-04-20T14:57:27Z</time></trkpt><trkpt lat="45.565905909433575" lon="10.417939959087482"><ele>296.5</ele><time>2026-04-20T14:57:36Z</time></trkpt><trkpt lat="45.56597973174831" lon="10.417988591966258"><ele>298.0</ele><time>2026-04-20T14:57:39Z</time></trkpt><trkpt lat="45.56604672447433" lon="10.41805989363908"><ele>299.5</ele><time>2026-04-20T14:57:42Z</time></trkpt><trkpt lat="45.56611115419165" lon="10.418140977393598"><ele>301.0</ele><time>2026-04-20T14:57:44Z</time></trkpt><trkpt lat="45.56618175017365" lon="10.418241755636316"><ele>302.5</ele><time>2026-04-20T14:57:47Z</time></trkpt><trkpt lat="45.566256881857946" lon="10.418332785235906"><ele>304.0</ele><time>2026-04-20T14:57:49Z</time></trkpt><trkpt lat="45.566272331446434" lon="10.418445746857685"><ele>300.8333333333333</ele><time>2026-04-20T14:57:52Z</time></trkpt><trkpt lat="45.56632108213291" lon="10.418566005080276"><ele>297.66666666666663</ele><time>2026-04-20T14:57:54Z</time></trkpt><trkpt lat="45.56636711480099" lon="10.418628701163403"><ele>294.5</ele><time>2026-04-20T14:58:23Z</time></trkpt><trkpt lat="45.56645083707608" lon="10.418542874612847"><ele>291.3333333333333</ele><time>2026-04-20T14:58:25Z</time></trkpt><trkpt lat="45.56647963735522" lon="10.418430345311805"><ele>288.1666666666667</ele><time>2026-04-20T14:58:27Z</time></trkpt><trkpt lat="45.56652194137777" lon="10.41831696822567"><ele>285.0</ele><time>2026-04-20T14:58:29Z</time></trkpt><trkpt lat="45.56654015376565" lon="10.418194635503236"><ele>285.0</ele><time>2026-04-20T14:58:31Z</time></trkpt><trkpt lat="45.56657432356671" lon="10.418094885921239"><ele>285.0</ele><time>2026-04-20T14:58:32Z</time></trkpt><trkpt lat="45.56660389808648" lon="10.417921667269987"><ele>285.0</ele><time>2026-04-20T14:58:34Z</time></trkpt><trkpt lat="45.56658198672139" lon="10.417806558004143"><ele>285.0</ele><time>2026-04-20T14:58:36Z</time></trkpt><trkpt lat="45.56654123895062" lon="10.417675778927617"><ele>285.0</ele><time>2026-04-20T14:58:38Z</time></trkpt><trkpt lat="45.56645488381992" lon="10.417573594981597"><ele>284.4</ele><time>2026-04-20T14:58:40Z</time></trkpt><trkpt lat="45.566345951050536" lon="10.417493222160841"><ele>283.8</ele><time>2026-04-20T14:58:42Z</time></trkpt><trkpt lat="45.566296400925566" lon="10.417387042089645"><ele>283.2</ele><time>2026-04-20T14:58:44Z</time></trkpt><trkpt lat="45.566300199438196" lon="10.417295463227477"><ele>282.6</ele><time>2026-04-20T14:58:46Z</time></trkpt><trkpt lat="45.56635558027439" lon="10.41718394715133"><ele>282.0</ele><time>2026-04-20T14:58:49Z</time></trkpt><trkpt lat="45.566409672058406" lon="10.417097783549345"><ele>280.0</ele><time>2026-04-20T14:58:51Z</time></trkpt><trkpt lat="45.56648144381571" lon="10.41701031005508"><ele>278.0</ele><time>2026-04-20T14:58:53Z</time></trkpt><trkpt lat="45.566566695641775" lon="10.416944689179534"><ele>276.0</ele><time>2026-04-20T14:58:55Z</time></trkpt><trkpt lat="45.56666199613679" lon="10.416943170156468"><ele>274.0</ele><time>2026-04-20T14:58:57Z</time></trkpt><trkpt lat="45.5667453321281" lon="10.416988709342512"><ele>272.0</ele><time>2026-04-20T14:58:59Z</time></trkpt><trkpt lat="45.56683746511013" lon="10.41708583740685"><ele>274.0</ele><time>2026-04-20T14:59:01Z</time></trkpt><trkpt lat="45.56687963388761" lon="10.417161815136142"><ele>276.0</ele><time>2026-04-20T14:59:02Z</time></trkpt><trkpt lat="45.56691919625583" lon="10.41723295847013"><ele>278.0</ele><time>2026-04-20T14:59:03Z</time></trkpt><trkpt lat="45.56695159203044" lon="10.417381618893433"><ele>280.0</ele><time>2026-04-20T14:59:05Z</time></trkpt><trkpt lat="45.567002642505386" lon="10.417523391850168"><ele>282.0</ele><time>2026-04-20T14:59:07Z</time></trkpt><trkpt lat="45.56709226902313" lon="10.417632250398514"><ele>278.0</ele><time>2026-04-20T14:59:09Z</time></trkpt><trkpt lat="45.56718072993884" lon="10.417724961663321"><ele>274.0</ele><time>2026-04-20T14:59:11Z</time></trkpt><trkpt lat="45.56726676440984" lon="10.417834781436003"><ele>270.0</ele><time>2026-04-20T14:59:13Z</time></trkpt><trkpt lat="45.567318445484986" lon="10.417902108648175"><ele>266.0</ele><time>2026-04-20T14:59:14Z</time></trkpt><trkpt lat="45.56737123221942" lon="10.417954955406378"><ele>262.0</ele><time>2026-04-20T14:59:15Z</time></trkpt><trkpt lat="45.56746618663742" lon="10.418112798175413"><ele>262.0</ele><time>2026-04-20T14:59:17Z</time></trkpt><trkpt lat="45.567528166158986" lon="10.418267008309389"><ele>262.0</ele><time>2026-04-20T14:59:19Z</time></trkpt><trkpt lat="45.56757817883133" lon="10.418406147867541"><ele>262.0</ele><time>2026-04-20T14:59:21Z</time></trkpt><trkpt lat="45.5675977880274" lon="10.4185418351651"><ele>262.0</ele><time>2026-04-20T14:59:23Z</time></trkpt><trkpt lat="45.567553995129195" lon="10.418714177042785"><ele>261.2</ele><time>2026-04-20T14:59:25Z</time></trkpt><trkpt lat="45.567492906484496" lon="10.418895253086353"><ele>260.4</ele><time>2026-04-20T14:59:27Z</time></trkpt><trkpt lat="45.5674373943823" lon="10.419065657300708"><ele>259.6</ele><time>2026-04-20T14:59:29Z</time></trkpt><trkpt lat="45.567416833408664" lon="10.41915138897978"><ele>258.8</ele><time>2026-04-20T14:59:31Z</time></trkpt><trkpt lat="45.56737342515595" lon="10.41928405817678"><ele>258.0</ele><time>2026-04-20T14:59:34Z</time></trkpt><trkpt lat="45.56734869538611" lon="10.419433679040733"><ele>258.0</ele><time>2026-04-20T14:59:36Z</time></trkpt><trkpt lat="45.56742235364937" lon="10.41953618506544"><ele>258.0</ele><time>2026-04-20T14:59:38Z</time></trkpt><trkpt lat="45.567469779366526" lon="10.419634398372501"><ele>258.0</ele><time>2026-04-20T14:59:41Z</time></trkpt><trkpt lat="45.56753238443492" lon="10.41972965693442"><ele>258.0</ele><time>2026-04-20T14:59:45Z</time></trkpt><trkpt lat="45.56758016258341" lon="10.419803268223808"><ele>258.0</ele><time>2026-04-20T15:00:23Z</time></trkpt><trkpt lat="45.56764352228919" lon="10.419885074690233"><ele>258.0</ele><time>2026-04-20T15:00:26Z</time></trkpt><trkpt lat="45.56764082082647" lon="10.41998743535487"><ele>258.0</ele><time>2026-04-20T15:00:50Z</time></trkpt><trkpt lat="45.56762769738849" lon="10.41989162086578"><ele>258.0</ele><time>2026-04-20T15:00:58Z</time></trkpt><trkpt lat="45.56758538146036" lon="10.419804277753965"><ele>258.0</ele><time>2026-04-20T15:01:02Z</time></trkpt><trkpt lat="45.567531506642716" lon="10.419728322477223"><ele>258.0</ele><time>2026-04-20T15:01:06Z</time></trkpt><trkpt lat="45.567478608755586" lon="10.419647833632933"><ele>258.0</ele><time>2026-04-20T15:01:09Z</time></trkpt><trkpt lat="45.56742312218611" lon="10.419553137113294"><ele>258.0</ele><time>2026-04-20T15:01:12Z</time></trkpt><trkpt lat="45.567381644639546" lon="10.41947661633421"><ele>258.0</ele><time>2026-04-20T15:01:15Z</time></trkpt><trkpt lat="45.56749655558405" lon="10.4192884519366"><ele>258.0</ele><time>2026-04-20T15:01:27Z</time></trkpt><trkpt lat="45.56755156606504" lon="10.419213997575739"><ele>258.0</ele><time>2026-04-20T15:01:29Z</time></trkpt><trkpt lat="45.567618014557006" lon="10.419203924337403"><ele>258.0</ele><time>2026-04-20T15:01:31Z</time></trkpt><trkpt lat="45.56765107294253" lon="10.41910810070122"><ele>258.0</ele><time>2026-04-20T15:01:33Z</time></trkpt><trkpt lat="45.56768751382902" lon="10.418999804800704"><ele>258.0</ele><time>2026-04-20T15:01:35Z</time></trkpt><trkpt lat="45.56771626407401" lon="10.418919594150365"><ele>258.0</ele><time>2026-04-20T15:01:38Z</time></trkpt><trkpt lat="45.567747051534404" lon="10.418832803615231"><ele>258.0</ele><time>2026-04-20T15:01:47Z</time></trkpt><trkpt lat="45.567792037160956" lon="10.418692089516332"><ele>258.0</ele><time>2026-04-20T15:01:50Z</time></trkpt><trkpt lat="45.56782014764382" lon="10.418590831328634"><ele>258.0</ele><time>2026-04-20T15:01:52Z</time></trkpt><trkpt lat="45.56783562604362" lon="10.41849304420485"><ele>258.0</ele><time>2026-04-20T15:01:54Z</time></trkpt><trkpt lat="45.567852663026436" lon="10.418353934384012"><ele>258.6666666666667</ele><time>2026-04-20T15:01:56Z</time></trkpt><trkpt lat="45.56785092871362" lon="10.418252349729663"><ele>259.3333333333333</ele><time>2026-04-20T15:01:58Z</time></trkpt><trkpt lat="45.567829533490716" lon="10.418117925341999"><ele>260.0</ele><time>2026-04-20T15:02:00Z</time></trkpt><trkpt lat="45.56780553413387" lon="10.418024815920337"><ele>260.66666666666663</ele><time>2026-04-20T15:02:02Z</time></trkpt><trkpt lat="45.567769328666024" lon="10.417900365116122"><ele>261.3333333333333</ele><time>2026-04-20T15:02:05Z</time></trkpt><trkpt lat="45.56773063989685" lon="10.41778256448591"><ele>262.0</ele><time>2026-04-20T15:02:07Z</time></trkpt><trkpt lat="45.56768638507765" lon="10.41764701884719"><ele>262.0</ele><time>2026-04-20T15:02:10Z</time></trkpt><trkpt lat="45.56766786669534" lon="10.417560917080177"><ele>262.0</ele><time>2026-04-20T15:02:11Z</time></trkpt><trkpt lat="45.567644209942806" lon="10.417403096623943"><ele>262.0</ele><time>2026-04-20T15:02:13Z</time></trkpt><trkpt lat="45.56761381978459" lon="10.41732061435231"><ele>262.0</ele><time>2026-04-20T15:02:16Z</time></trkpt><trkpt lat="45.56754533148401" lon="10.417202686855061"><ele>262.0</ele><time>2026-04-20T15:02:19Z</time></trkpt><trkpt lat="45.56749527818906" lon="10.417129715465553"><ele>262.0</ele><time>2026-04-20T15:02:22Z</time></trkpt><trkpt lat="45.567446165847244" lon="10.417057500285903"><ele>261.5</ele><time>2026-04-20T15:02:24Z</time></trkpt><trkpt lat="45.56734402767194" lon="10.417082837309783"><ele>261.0</ele><time>2026-04-20T15:02:26Z</time></trkpt><trkpt lat="45.567290042007514" lon="10.416981729872054"><ele>260.5</ele><time>2026-04-20T15:02:29Z</time></trkpt><trkpt lat="45.56728238389154" lon="10.41688804086858"><ele>260.0</ele><time>2026-04-20T15:02:31Z</time></trkpt><trkpt lat="45.56727983857762" lon="10.416761922744406"><ele>259.5</ele><time>2026-04-20T15:02:34Z</time></trkpt><trkpt lat="45.56730263850164" lon="10.416636245546858"><ele>259.0</ele><time>2026-04-20T15:02:37Z</time></trkpt><trkpt lat="45.56735326799705" lon="10.416515651366424"><ele>259.0</ele><time>2026-04-20T15:02:39Z</time></trkpt><trkpt lat="45.56738410315827" lon="10.416396629927718"><ele>259.0</ele><time>2026-04-20T15:02:41Z</time></trkpt><trkpt lat="45.56741732829683" lon="10.416265962211451"><ele>259.0</ele><time>2026-04-20T15:02:43Z</time></trkpt><trkpt lat="45.5674117354916" lon="10.41614229708724"><ele>259.0</ele><time>2026-04-20T15:02:45Z</time></trkpt><trkpt lat="45.56734448539528" lon="10.416062714636015"><ele>259.0</ele><time>2026-04-20T15:02:47Z</time></trkpt><trkpt lat="45.56733966023326" lon="10.415938031621106"><ele>259.0</ele><time>2026-04-20T15:02:48Z</time></trkpt><trkpt lat="45.567260891700926" lon="10.415938361839167"><ele>259.16666666666663</ele><time>2026-04-20T15:02:49Z</time></trkpt><trkpt lat="45.56719688281096" lon="10.415939498834742"><ele>259.3333333333333</ele><time>2026-04-20T15:02:50Z</time></trkpt><trkpt lat="45.567096154090734" lon="10.415942507503324"><ele>259.5</ele><time>2026-04-20T15:02:52Z</time></trkpt><trkpt lat="45.56702921742469" lon="10.415950565723918"><ele>259.6666666666667</ele><time>2026-04-20T15:02:53Z</time></trkpt><trkpt lat="45.5669550954919" lon="10.41596785174849"><ele>259.83333333333337</ele><time>2026-04-20T15:02:55Z</time></trkpt><trkpt lat="45.56685482666845" lon="10.416000942791737"><ele>260.0</ele><time>2026-04-20T15:02:57Z</time></trkpt><trkpt lat="45.5667527757262" lon="10.416044435262226"><ele>260.33333333333337</ele><time>2026-04-20T15:02:59Z</time></trkpt><trkpt lat="45.566655924395356" lon="10.416090971092416"><ele>260.6666666666667</ele><time>2026-04-20T15:03:01Z</time></trkpt><trkpt lat="45.56656792406543" lon="10.416131060297092"><ele>261.0</ele><time>2026-04-20T15:03:03Z</time></trkpt><trkpt lat="45.566470132775216" lon="10.416155645846116"><ele>261.3333333333333</ele><time>2026-04-20T15:03:05Z</time></trkpt><trkpt lat="45.566393232304755" lon="10.41616326435612"><ele>261.66666666666663</ele><time>2026-04-20T15:03:07Z</time></trkpt><trkpt lat="45.56640851779461" lon="10.41606261879339"><ele>262.0</ele><time>2026-04-20T15:03:09Z</time></trkpt><trkpt lat="45.56637216502634" lon="10.415962018447674"><ele>262.0</ele><time>2026-04-20T15:03:11Z</time></trkpt><trkpt lat="45.56633693483539" lon="10.415863097115205"><ele>262.0</ele><time>2026-04-20T15:03:13Z</time></trkpt><trkpt lat="45.56630854018108" lon="10.415776000029693"><ele>262.0</ele><time>2026-04-20T15:03:15Z</time></trkpt><trkpt lat="45.566269427215666" lon="10.415661968755087"><ele>262.0</ele><time>2026-04-20T15:03:17Z</time></trkpt><trkpt lat="45.5662150750191" lon="10.415556545379381"><ele>262.0</ele><time>2026-04-20T15:03:20Z</time></trkpt><trkpt lat="45.566196801608086" lon="10.415469995675103"><ele>262.0</ele><time>2026-04-20T15:03:22Z</time></trkpt><trkpt lat="45.566151553723735" lon="10.415339927528839"><ele>263.2</ele><time>2026-04-20T15:03:25Z</time></trkpt><trkpt lat="45.56609724383547" lon="10.415209660517236"><ele>264.4</ele><time>2026-04-20T15:03:27Z</time></trkpt><trkpt lat="45.56606947795457" lon="10.415099973936554"><ele>265.6</ele><time>2026-04-20T15:03:29Z</time></trkpt><trkpt lat="45.56604298191033" lon="10.414983936792723"><ele>266.8</ele><time>2026-04-20T15:03:31Z</time></trkpt><trkpt lat="45.56600033716357" lon="10.414858181688604"><ele>268.0</ele><time>2026-04-20T15:03:33Z</time></trkpt><trkpt lat="45.565945857749774" lon="10.414755675546916"><ele>266.16666666666663</ele><time>2026-04-20T15:03:35Z</time></trkpt><trkpt lat="45.565887350037464" lon="10.414643670205956"><ele>264.3333333333333</ele><time>2026-04-20T15:03:37Z</time></trkpt><trkpt lat="45.56580778843515" lon="10.414540763333372"><ele>262.5</ele><time>2026-04-20T15:03:39Z</time></trkpt><trkpt lat="45.565744703127294" lon="10.414467252376438"><ele>260.6666666666667</ele><time>2026-04-20T15:03:41Z</time></trkpt><trkpt lat="45.56567631361713" lon="10.414414179996294"><ele>258.83333333333337</ele><time>2026-04-20T15:03:43Z</time></trkpt><trkpt lat="45.565625386270874" lon="10.414322465220513"><ele>257.0</ele><time>2026-04-20T15:03:45Z</time></trkpt><trkpt lat="45.56557460040391" lon="10.414261688287882"><ele>257.0</ele><time>2026-04-20T15:03:47Z</time></trkpt><trkpt lat="45.56552713406122" lon="10.414177925558052"><ele>257.0</ele><time>2026-04-20T15:03:49Z</time></trkpt><trkpt lat="45.56547031895001" lon="10.414089894661135"><ele>257.0</ele><time>2026-04-20T15:03:51Z</time></trkpt><trkpt lat="45.56538682903141" lon="10.413960012973998"><ele>257.0</ele><time>2026-04-20T15:03:53Z</time></trkpt><trkpt lat="45.56533901902224" lon="10.413885636975401"><ele>257.0</ele><time>2026-04-20T15:03:54Z</time></trkpt><trkpt lat="45.565289868326055" lon="10.413809175376274"><ele>257.0</ele><time>2026-04-20T15:03:55Z</time></trkpt><trkpt lat="45.56524120667439" lon="10.413733474526467"><ele>257.42857142857144</ele><time>2026-04-20T15:03:56Z</time></trkpt><trkpt lat="45.565195988628524" lon="10.413663130778048"><ele>257.8571428571429</ele><time>2026-04-20T15:03:57Z</time></trkpt><trkpt lat="45.56515133324392" lon="10.413593662310447"><ele>258.28571428571433</ele><time>2026-04-20T15:03:58Z</time></trkpt><trkpt lat="45.56509912002137" lon="10.41351243645364"><ele>258.7142857142857</ele><time>2026-04-20T15:03:59Z</time></trkpt><trkpt lat="45.565048566895534" lon="10.413433793130936"><ele>259.14285714285717</ele><time>2026-04-20T15:04:00Z</time></trkpt><trkpt lat="45.56500028934487" lon="10.41335852186181"><ele>259.5714285714286</ele><time>2026-04-20T15:04:01Z</time></trkpt><trkpt lat="45.56495607670345" lon="10.413289585310963"><ele>260.0</ele><time>2026-04-20T15:04:02Z</time></trkpt><trkpt lat="45.56490787650077" lon="10.413213446437688"><ele>260.0</ele><time>2026-04-20T15:04:03Z</time></trkpt><trkpt lat="45.564830274914634" lon="10.413086297129041"><ele>260.0</ele><time>2026-04-20T15:04:05Z</time></trkpt><trkpt lat="45.56475217483959" lon="10.412952430796317"><ele>260.0</ele><time>2026-04-20T15:04:07Z</time></trkpt><trkpt lat="45.56469065993815" lon="10.412829976196218"><ele>260.0</ele><time>2026-04-20T15:04:09Z</time></trkpt><trkpt lat="45.56465697464647" lon="10.412749113240439"><ele>260.0</ele><time>2026-04-20T15:04:12Z</time></trkpt><trkpt lat="45.56463716644988" lon="10.412655630903323"><ele>259.5</ele><time>2026-04-20T15:04:13Z</time></trkpt><trkpt lat="45.56462188280297" lon="10.412508932855307"><ele>259.0</ele><time>2026-04-20T15:04:15Z</time></trkpt><trkpt lat="45.564636993420606" lon="10.412418147660375"><ele>258.5</ele><time>2026-04-20T15:04:16Z</time></trkpt><trkpt lat="45.56465290338449" lon="10.41228736576082"><ele>258.0</ele><time>2026-04-20T15:04:18Z</time></trkpt><trkpt lat="45.564674386553364" lon="10.412186193944049"><ele>257.5</ele><time>2026-04-20T15:04:20Z</time></trkpt><trkpt lat="45.56472250758673" lon="10.412082273073622"><ele>257.0</ele><time>2026-04-20T15:04:22Z</time></trkpt><trkpt lat="45.56477063278567" lon="10.411986255115734"><ele>256.83333333333337</ele><time>2026-04-20T15:04:24Z</time></trkpt><trkpt lat="45.564799037455" lon="10.411888461366551"><ele>256.6666666666667</ele><time>2026-04-20T15:04:26Z</time></trkpt><trkpt lat="45.564791188957" lon="10.411773020534493"><ele>256.5</ele><time>2026-04-20T15:04:28Z</time></trkpt><trkpt lat="45.56475662305725" lon="10.41167711784679"><ele>256.3333333333333</ele><time>2026-04-20T15:04:30Z</time></trkpt><trkpt lat="45.56471543320245" lon="10.411587757027194"><ele>256.16666666666663</ele><time>2026-04-20T15:04:32Z</time></trkpt><trkpt lat="45.564675123849014" lon="10.411502824216864"><ele>256.0</ele><time>2026-04-20T15:04:34Z</time></trkpt><trkpt lat="45.56463107767987" lon="10.411410419055482"><ele>256.16666666666663</ele><time>2026-04-20T15:04:36Z</time></trkpt><trkpt lat="45.56458717706998" lon="10.411315392322713"><ele>256.3333333333333</ele><time>2026-04-20T15:04:38Z</time></trkpt><trkpt lat="45.56454542037415" lon="10.411220997476393"><ele>256.5</ele><time>2026-04-20T15:04:40Z</time></trkpt><trkpt lat="45.56450911091285" lon="10.411133872916048"><ele>256.6666666666667</ele><time>2026-04-20T15:04:42Z</time></trkpt><trkpt lat="45.56447529316047" lon="10.411045461287646"><ele>256.83333333333337</ele><time>2026-04-20T15:04:44Z</time></trkpt><trkpt lat="45.56444456158647" lon="10.410954788415843"><ele>257.0</ele><time>2026-04-20T15:04:46Z</time></trkpt><trkpt lat="45.56441409699244" lon="10.410847695071931"><ele>258.2857142857143</ele><time>2026-04-20T15:04:48Z</time></trkpt><trkpt lat="45.564394779371945" lon="10.410752336829448"><ele>259.57142857142856</ele><time>2026-04-20T15:04:50Z</time></trkpt><trkpt lat="45.56438778967237" lon="10.410644645448805"><ele>260.8571428571429</ele><time>2026-04-20T15:04:53Z</time></trkpt><trkpt lat="45.56439200489739" lon="10.410543784148746"><ele>262.1428571428571</ele><time>2026-04-20T15:04:57Z</time></trkpt><trkpt lat="45.564404026901876" lon="10.410452267646999"><ele>263.42857142857144</ele><time>2026-04-20T15:05:00Z</time></trkpt><trkpt lat="45.56440669239797" lon="10.410353893305311"><ele>264.7142857142857</ele><time>2026-04-20T15:05:03Z</time></trkpt><trkpt lat="45.56440583035285" lon="10.410229352028606"><ele>266.0</ele><time>2026-04-20T15:05:07Z</time></trkpt><trkpt lat="45.564389236328296" lon="10.410116021093437"><ele>266.0</ele><time>2026-04-20T15:05:10Z</time></trkpt><trkpt lat="45.56434693180822" lon="10.410025939443495"><ele>266.0</ele><time>2026-04-20T15:05:13Z</time></trkpt><trkpt lat="45.56429959055039" lon="10.409956328027688"><ele>266.0</ele><time>2026-04-20T15:05:15Z</time></trkpt><trkpt lat="45.56426006961673" lon="10.409872688314644"><ele>266.0</ele><time>2026-04-20T15:05:17Z</time></trkpt><trkpt lat="45.56421496822011" lon="10.409776540479447"><ele>266.0</ele><time>2026-04-20T15:05:19Z</time></trkpt><trkpt lat="45.56417609029134" lon="10.40968817086524"><ele>266.0</ele><time>2026-04-20T15:05:21Z</time></trkpt><trkpt lat="45.56413444875408" lon="10.409602394838986"><ele>266.0</ele><time>2026-04-20T15:05:23Z</time></trkpt><trkpt lat="45.56410506136572" lon="10.409509400605534"><ele>265.5</ele><time>2026-04-20T15:05:25Z</time></trkpt><trkpt lat="45.564065411293754" lon="10.409402303141244"><ele>265.0</ele><time>2026-04-20T15:05:28Z</time></trkpt><trkpt lat="45.5640159390479" lon="10.409303559648553"><ele>264.5</ele><time>2026-04-20T15:05:31Z</time></trkpt><trkpt lat="45.563952915891804" lon="10.409257270996008"><ele>264.0</ele><time>2026-04-20T15:05:34Z</time></trkpt><trkpt lat="45.563915500161066" lon="10.409184605232484"><ele>263.5</ele><time>2026-04-20T15:05:37Z</time></trkpt><trkpt lat="45.56395676469936" lon="10.409048484774951"><ele>263.0</ele><time>2026-04-20T15:05:40Z</time></trkpt><trkpt lat="45.564015503536154" lon="10.408947636062651"><ele>263.0</ele><time>2026-04-20T15:05:42Z</time></trkpt><trkpt lat="45.564067991498504" lon="10.408864851931549"><ele>263.0</ele><time>2026-04-20T15:05:44Z</time></trkpt><trkpt lat="45.56410204286558" lon="10.408762738271703"><ele>263.0</ele><time>2026-04-20T15:05:46Z</time></trkpt><trkpt lat="45.56414197605863" lon="10.408676322808335"><ele>263.0</ele><time>2026-04-20T15:05:48Z</time></trkpt><trkpt lat="45.56416083140261" lon="10.408572901418074"><ele>263.0</ele><time>2026-04-20T15:05:50Z</time></trkpt><trkpt lat="45.56417155502201" lon="10.408461902651148"><ele>263.0</ele><time>2026-04-20T15:05:52Z</time></trkpt><trkpt lat="45.56421843660095" lon="10.408341184664835"><ele>262.5</ele><time>2026-04-20T15:05:54Z</time></trkpt><trkpt lat="45.564222554230014" lon="10.408174616009804"><ele>262.0</ele><time>2026-04-20T15:05:56Z</time></trkpt><trkpt lat="45.56422544794742" lon="10.408028779498729"><ele>261.5</ele><time>2026-04-20T15:05:58Z</time></trkpt><trkpt lat="45.5641863198222" lon="10.407944900378258"><ele>261.0</ele><time>2026-04-20T15:05:59Z</time></trkpt><trkpt lat="45.564132935145466" lon="10.407880187839028"><ele>260.5</ele><time>2026-04-20T15:06:00Z</time></trkpt><trkpt lat="45.564077117004274" lon="10.407806398226853"><ele>260.0</ele><time>2026-04-20T15:06:01Z</time></trkpt><trkpt lat="45.56400718127498" lon="10.407718100739759"><ele>259.4</ele><time>2026-04-20T15:06:02Z</time></trkpt><trkpt lat="45.56393115502926" lon="10.407626966167044"><ele>258.8</ele><time>2026-04-20T15:06:03Z</time></trkpt><trkpt lat="45.563843734579635" lon="10.407537558015768"><ele>258.2</ele><time>2026-04-20T15:06:04Z</time></trkpt><trkpt lat="45.563755679381224" lon="10.407437194769985"><ele>257.6</ele><time>2026-04-20T15:06:05Z</time></trkpt><trkpt lat="45.56367626031944" lon="10.40733924842743"><ele>257.0</ele><time>2026-04-20T15:06:06Z</time></trkpt><trkpt lat="45.56360712028227" lon="10.407248259682873"><ele>256.1666666666667</ele><time>2026-04-20T15:06:07Z</time></trkpt><trkpt lat="45.56354041615592" lon="10.407157305796188"><ele>255.33333333333334</ele><time>2026-04-20T15:06:08Z</time></trkpt><trkpt lat="45.56348120710314" lon="10.407068613449205"><ele>254.5</ele><time>2026-04-20T15:06:09Z</time></trkpt><trkpt lat="45.56342988884686" lon="10.406977466928147"><ele>253.66666666666669</ele><time>2026-04-20T15:06:10Z</time></trkpt><trkpt lat="45.56338439414843" lon="10.406886503387009"><ele>252.83333333333334</ele><time>2026-04-20T15:06:11Z</time></trkpt><trkpt lat="45.56335347953045" lon="10.406795770146006"><ele>252.0</ele><time>2026-04-20T15:06:12Z</time></trkpt><trkpt lat="45.56332589401251" lon="10.406705044887707"><ele>252.0</ele><time>2026-04-20T15:06:13Z</time></trkpt><trkpt lat="45.56330169252966" lon="10.406612888085224"><ele>252.0</ele><time>2026-04-20T15:06:14Z</time></trkpt><trkpt lat="45.56328419507326" lon="10.406513026827078"><ele>252.0</ele><time>2026-04-20T15:06:15Z</time></trkpt><trkpt lat="45.56328492841372" lon="10.406421903801062"><ele>252.0</ele><time>2026-04-20T15:06:16Z</time></trkpt><trkpt lat="45.563264136254034" lon="10.406317019735418"><ele>252.0</ele><time>2026-04-20T15:06:17Z</time></trkpt><trkpt lat="45.56325593842749" lon="10.406224874163348"><ele>252.0</ele><time>2026-04-20T15:06:18Z</time></trkpt><trkpt lat="45.56325072011714" lon="10.406135186610532"><ele>252.0</ele><time>2026-04-20T15:06:19Z</time></trkpt><trkpt lat="45.56320585164709" lon="10.40597722271693"><ele>252.16666666666666</ele><time>2026-04-20T15:06:21Z</time></trkpt><trkpt lat="45.56315933118585" lon="10.405896984004519"><ele>252.33333333333331</ele><time>2026-04-20T15:06:22Z</time></trkpt><trkpt lat="45.56309832001402" lon="10.405750172779237"><ele>252.5</ele><time>2026-04-20T15:06:24Z</time></trkpt><trkpt lat="45.56305714856223" lon="10.405660323123941"><ele>252.66666666666666</ele><time>2026-04-20T15:06:25Z</time></trkpt><trkpt lat="45.56301484252101" lon="10.405566728943564"><ele>252.83333333333331</ele><time>2026-04-20T15:06:26Z</time></trkpt><trkpt lat="45.56297061353798" lon="10.40547969619539"><ele>253.0</ele><time>2026-04-20T15:06:27Z</time></trkpt><trkpt lat="45.56292663070635" lon="10.405376468566246"><ele>252.33333333333331</ele><time>2026-04-20T15:06:28Z</time></trkpt><trkpt lat="45.5628633727304" lon="10.405288501572295"><ele>251.66666666666666</ele><time>2026-04-20T15:06:29Z</time></trkpt><trkpt lat="45.562794796294604" lon="10.405210363684102"><ele>251.0</ele><time>2026-04-20T15:06:30Z</time></trkpt><trkpt lat="45.562720527731116" lon="10.405156199918624"><ele>250.33333333333331</ele><time>2026-04-20T15:06:31Z</time></trkpt><trkpt lat="45.56266501724491" lon="10.405065918137835"><ele>249.66666666666666</ele><time>2026-04-20T15:06:32Z</time></trkpt><trkpt lat="45.56260216474582" lon="10.404998996468443"><ele>249.0</ele><time>2026-04-20T15:06:33Z</time></trkpt><trkpt lat="45.56253512936638" lon="10.404944379815099"><ele>249.0</ele><time>2026-04-20T15:06:34Z</time></trkpt><trkpt lat="45.562475805174124" lon="10.404876832983602"><ele>249.0</ele><time>2026-04-20T15:06:35Z</time></trkpt><trkpt lat="45.5624188378966" lon="10.404807226196844"><ele>249.0</ele><time>2026-04-20T15:06:36Z</time></trkpt><trkpt lat="45.56237903388525" lon="10.404719661838863"><ele>249.0</ele><time>2026-04-20T15:06:37Z</time></trkpt><trkpt lat="45.56232870065298" lon="10.404652206789697"><ele>249.0</ele><time>2026-04-20T15:06:38Z</time></trkpt><trkpt lat="45.56222321892768" lon="10.404601082474054"><ele>249.0</ele><time>2026-04-20T15:06:40Z</time></trkpt><trkpt lat="45.56214624552952" lon="10.404715156886342"><ele>249.0</ele><time>2026-04-20T15:06:42Z</time></trkpt><trkpt lat="45.56207266845124" lon="10.404840916297356"><ele>248.99999999999997</ele><time>2026-04-20T15:06:44Z</time></trkpt><trkpt lat="45.5620154368031" lon="10.40499093254171"><ele>248.99999999999997</ele><time>2026-04-20T15:06:46Z</time></trkpt><trkpt lat="45.561969017201136" lon="10.405054341846"><ele>249.0</ele><time>2026-04-20T15:06:47Z</time></trkpt><trkpt lat="45.561902374871906" lon="10.405207230845015"><ele>249.0</ele><time>2026-04-20T15:06:49Z</time></trkpt><trkpt lat="45.56183466163269" lon="10.405344830986367"><ele>248.5</ele><time>2026-04-20T15:06:51Z</time></trkpt><trkpt lat="45.56176818827791" lon="10.405481055625092"><ele>248.0</ele><time>2026-04-20T15:06:53Z</time></trkpt><trkpt lat="45.561691137651174" lon="10.405606249108658"><ele>247.5</ele><time>2026-04-20T15:06:55Z</time></trkpt><trkpt lat="45.56162958869135" lon="10.405752531199772"><ele>247.0</ele><time>2026-04-20T15:06:57Z</time></trkpt><trkpt lat="45.561549774251716" lon="10.405871928945624"><ele>246.0</ele><time>2026-04-20T15:06:59Z</time></trkpt><trkpt lat="45.56145003175563" lon="10.405954046749478"><ele>245.0</ele><time>2026-04-20T15:07:01Z</time></trkpt><trkpt lat="45.561336173684786" lon="10.405924547574164"><ele>244.0</ele><time>2026-04-20T15:07:03Z</time></trkpt><trkpt lat="45.561229952580554" lon="10.405840080460655"><ele>243.0</ele><time>2026-04-20T15:07:05Z</time></trkpt><trkpt lat="45.561131142176855" lon="10.405741014228832"><ele>242.75</ele><time>2026-04-20T15:07:07Z</time></trkpt><trkpt lat="45.561033584816634" lon="10.40564870590923"><ele>242.5</ele><time>2026-04-20T15:07:09Z</time></trkpt><trkpt lat="45.56093458146066" lon="10.405556369573668"><ele>242.25</ele><time>2026-04-20T15:07:11Z</time></trkpt><trkpt lat="45.56084555629796" lon="10.405459744025723"><ele>242.0</ele><time>2026-04-20T15:07:13Z</time></trkpt><trkpt lat="45.56075538675004" lon="10.405369143694116"><ele>242.8</ele><time>2026-04-20T15:07:15Z</time></trkpt><trkpt lat="45.5606619916029" lon="10.40527834672705"><ele>243.6</ele><time>2026-04-20T15:07:17Z</time></trkpt><trkpt lat="45.56056741764794" lon="10.405190995604285"><ele>244.40000000000003</ele><time>2026-04-20T15:07:19Z</time></trkpt><trkpt lat="45.56047576835197" lon="10.405102462980205"><ele>245.20000000000002</ele><time>2026-04-20T15:07:21Z</time></trkpt><trkpt lat="45.56038421815723" lon="10.405025272847025"><ele>246.0</ele><time>2026-04-20T15:07:23Z</time></trkpt><trkpt lat="45.56029539793698" lon="10.404939680347846"><ele>246.0</ele><time>2026-04-20T15:07:25Z</time></trkpt><trkpt lat="45.56021173127136" lon="10.40484972887924"><ele>246.00000000000003</ele><time>2026-04-20T15:07:27Z</time></trkpt><trkpt lat="45.56012472270018" lon="10.40476083832321"><ele>246.00000000000003</ele><time>2026-04-20T15:07:29Z</time></trkpt><trkpt lat="45.560036527614066" lon="10.404669195983029"><ele>246.0</ele><time>2026-04-20T15:07:31Z</time></trkpt><trkpt lat="45.55995405792316" lon="10.404563557767005"><ele>246.0</ele><time>2026-04-20T15:07:33Z</time></trkpt><trkpt lat="45.55988862379874" lon="10.40443209442007"><ele>247.0</ele><time>2026-04-20T15:07:35Z</time></trkpt><trkpt lat="45.55982995217171" lon="10.404296783997049"><ele>248.0</ele><time>2026-04-20T15:07:37Z</time></trkpt><trkpt lat="45.55977645457112" lon="10.40415351611107"><ele>249.0</ele><time>2026-04-20T15:07:39Z</time></trkpt><trkpt lat="45.55973525752244" lon="10.404004289055173"><ele>250.0</ele><time>2026-04-20T15:07:41Z</time></trkpt><trkpt lat="45.559692410387605" lon="10.403850528433994"><ele>249.0</ele><time>2026-04-20T15:07:43Z</time></trkpt><trkpt lat="45.55961635793627" lon="10.40372770232444"><ele>248.0</ele><time>2026-04-20T15:07:45Z</time></trkpt><trkpt lat="45.55953671473583" lon="10.403615658118953"><ele>247.0</ele><time>2026-04-20T15:07:47Z</time></trkpt><trkpt lat="45.55945159705854" lon="10.403508733377194"><ele>246.0</ele><time>2026-04-20T15:07:49Z</time></trkpt><trkpt lat="45.55936838708329" lon="10.403383401229414"><ele>246.0</ele><time>2026-04-20T15:07:51Z</time></trkpt><trkpt lat="45.559335847746276" lon="10.403304076931676"><ele>246.0</ele><time>2026-04-20T15:07:52Z</time></trkpt><trkpt lat="45.5592784666143" lon="10.40325769312402"><ele>246.0</ele><time>2026-04-20T15:07:53Z</time></trkpt><trkpt lat="45.55918911587475" lon="10.40313631555318"><ele>246.0</ele><time>2026-04-20T15:07:55Z</time></trkpt><trkpt lat="45.559130207844596" lon="10.403092166829776"><ele>246.0</ele><time>2026-04-20T15:07:56Z</time></trkpt><trkpt lat="45.55907325496352" lon="10.40305019889732"><ele>246.0</ele><time>2026-04-20T15:07:57Z</time></trkpt><trkpt lat="45.55901262639652" lon="10.403008396089168"><ele>247.66666666666666</ele><time>2026-04-20T15:07:58Z</time></trkpt><trkpt lat="45.55891713841365" lon="10.402898326909854"><ele>249.33333333333331</ele><time>2026-04-20T15:08:00Z</time></trkpt><trkpt lat="45.558867221869335" lon="10.402831545741849"><ele>251.0</ele><time>2026-04-20T15:08:01Z</time></trkpt><trkpt lat="45.558821146770995" lon="10.402762650132004"><ele>252.66666666666666</ele><time>2026-04-20T15:08:02Z</time></trkpt><trkpt lat="45.55877145448896" lon="10.402690026945336"><ele>254.33333333333331</ele><time>2026-04-20T15:08:03Z</time></trkpt><trkpt lat="45.55874158571165" lon="10.402604431004727"><ele>256.0</ele><time>2026-04-20T15:08:04Z</time></trkpt><trkpt lat="45.558707723902025" lon="10.402517478975893"><ele>254.33333333333331</ele><time>2026-04-20T15:08:05Z</time></trkpt><trkpt lat="45.558683290451555" lon="10.402417648682075"><ele>252.66666666666666</ele><time>2026-04-20T15:08:06Z</time></trkpt><trkpt lat="45.558658171463335" lon="10.40231335981368"><ele>251.0</ele><time>2026-04-20T15:08:07Z</time></trkpt><trkpt lat="45.558634052383795" lon="10.402210382393667"><ele>249.33333333333331</ele><time>2026-04-20T15:08:08Z</time></trkpt><trkpt lat="45.55860940113715" lon="10.402104055673"><ele>247.66666666666666</ele><time>2026-04-20T15:08:09Z</time></trkpt><trkpt lat="45.55858257485714" lon="10.401996483124327"><ele>246.0</ele><time>2026-04-20T15:08:10Z</time></trkpt><trkpt lat="45.55854102919088" lon="10.401897283054465"><ele>246.0</ele><time>2026-04-20T15:08:11Z</time></trkpt><trkpt lat="45.5585167970326" lon="10.401783456924665"><ele>246.0</ele><time>2026-04-20T15:08:12Z</time></trkpt><trkpt lat="45.55846007841111" lon="10.401698404072068"><ele>246.0</ele><time>2026-04-20T15:08:13Z</time></trkpt><trkpt lat="45.55842299613293" lon="10.401592553707143"><ele>246.0</ele><time>2026-04-20T15:08:14Z</time></trkpt><trkpt lat="45.55835961591013" lon="10.401502906295823"><ele>246.0</ele><time>2026-04-20T15:08:15Z</time></trkpt><trkpt lat="45.55829935589395" lon="10.401429577514033"><ele>246.0</ele><time>2026-04-20T15:08:16Z</time></trkpt><trkpt lat="45.55823916007361" lon="10.401362710564483"><ele>247.4</ele><time>2026-04-20T15:08:17Z</time></trkpt><trkpt lat="45.55817284462148" lon="10.401297343198394"><ele>248.8</ele><time>2026-04-20T15:08:18Z</time></trkpt><trkpt lat="45.5580873808745" lon="10.401247429154955"><ele>250.20000000000002</ele><time>2026-04-20T15:08:19Z</time></trkpt><trkpt lat="45.558008714756426" lon="10.401174401601784"><ele>251.60000000000002</ele><time>2026-04-20T15:08:20Z</time></trkpt><trkpt lat="45.55792412571439" lon="10.401102539366844"><ele>253.0</ele><time>2026-04-20T15:08:21Z</time></trkpt><trkpt lat="45.55784555999664" lon="10.401015270516734"><ele>249.0</ele><time>2026-04-20T15:08:22Z</time></trkpt><trkpt lat="45.5577666007243" lon="10.400929243736439"><ele>245.0</ele><time>2026-04-20T15:08:23Z</time></trkpt><trkpt lat="45.557684739950176" lon="10.400839054746704"><ele>241.0</ele><time>2026-04-20T15:08:24Z</time></trkpt><trkpt lat="45.55760470256662" lon="10.40074898048663"><ele>237.0</ele><time>2026-04-20T15:08:25Z</time></trkpt><trkpt lat="45.557549648835575" lon="10.40067004195293"><ele>233.0</ele><time>2026-04-20T15:08:26Z</time></trkpt><trkpt lat="45.55751930794298" lon="10.400557457647588"><ele>233.4</ele><time>2026-04-20T15:08:27Z</time></trkpt><trkpt lat="45.55747418551317" lon="10.400454402571306"><ele>233.8</ele><time>2026-04-20T15:08:28Z</time></trkpt><trkpt lat="45.55743075308923" lon="10.40035625793943"><ele>234.2</ele><time>2026-04-20T15:08:29Z</time></trkpt><trkpt lat="45.55737994761738" lon="10.400245977649217"><ele>234.6</ele><time>2026-04-20T15:08:30Z</time></trkpt><trkpt lat="45.557320095305755" lon="10.400140474925793"><ele>235.0</ele><time>2026-04-20T15:08:31Z</time></trkpt><trkpt lat="45.55726827454768" lon="10.40002437547541"><ele>234.99999999999997</ele><time>2026-04-20T15:08:32Z</time></trkpt><trkpt lat="45.557236899546" lon="10.399911399688126"><ele>235.0</ele><time>2026-04-20T15:08:33Z</time></trkpt><trkpt lat="45.557198495904" lon="10.399811589981324"><ele>235.0</ele><time>2026-04-20T15:08:34Z</time></trkpt><trkpt lat="45.55716144767354" lon="10.39971491767336"><ele>235.0</ele><time>2026-04-20T15:08:35Z</time></trkpt><trkpt lat="45.557129213286316" lon="10.399634649580399"><ele>234.99999999999997</ele><time>2026-04-20T15:08:36Z</time></trkpt><trkpt lat="45.55705594864071" lon="10.399489998341569"><ele>235.0</ele><time>2026-04-20T15:08:38Z</time></trkpt><trkpt lat="45.55698074303317" lon="10.399483752504876"><ele>234.0</ele><time>2026-04-20T15:08:42Z</time></trkpt><trkpt lat="45.55688362312481" lon="10.399400528507316"><ele>233.0</ele><time>2026-04-20T15:08:44Z</time></trkpt><trkpt lat="45.55678070909607" lon="10.399312339363872"><ele>232.0</ele><time>2026-04-20T15:08:46Z</time></trkpt><trkpt lat="45.556737954918326" lon="10.39923666838908"><ele>231.0</ele><time>2026-04-20T15:08:47Z</time></trkpt><trkpt lat="45.55663810928733" lon="10.39921765977606"><ele>230.0</ele><time>2026-04-20T15:08:49Z</time></trkpt><trkpt lat="45.55733930914498" lon="10.39930479593218"><ele>229.99999999999997</ele><time>2026-04-20T15:08:51Z</time></trkpt><trkpt lat="45.55739490993473" lon="10.399246826187062"><ele>230.0</ele><time>2026-04-20T15:08:55Z</time></trkpt><trkpt lat="45.557459966377394" lon="10.399223942390798"><ele>229.99999999999997</ele><time>2026-04-20T15:08:58Z</time></trkpt><trkpt lat="45.557518959767016" lon="10.3991670921314"><ele>229.99999999999997</ele><time>2026-04-20T15:09:02Z</time></trkpt><trkpt lat="45.55757152560787" lon="10.399113100075756"><ele>230.0</ele><time>2026-04-20T15:09:06Z</time></trkpt><trkpt lat="45.55761049549213" lon="10.399034290682701"><ele>229.99999999999997</ele><time>2026-04-20T15:09:09Z</time></trkpt><trkpt lat="45.557638895049315" lon="10.398948660286056"><ele>229.99999999999997</ele><time>2026-04-20T15:09:12Z</time></trkpt><trkpt lat="45.55766739338325" lon="10.398860997463157"><ele>227.99999999999997</ele><time>2026-04-20T15:09:15Z</time></trkpt><trkpt lat="45.557679532134706" lon="10.398769253569368"><ele>226.0</ele><time>2026-04-20T15:09:18Z</time></trkpt><trkpt lat="45.557725994019684" lon="10.398683068469571"><ele>224.0</ele><time>2026-04-20T15:09:21Z</time></trkpt><trkpt lat="45.55778354484807" lon="10.398614368500382"><ele>222.0</ele><time>2026-04-20T15:09:24Z</time></trkpt><trkpt lat="45.55784002209909" lon="10.398544860687062"><ele>220.0</ele><time>2026-04-20T15:09:27Z</time></trkpt><trkpt lat="45.55789637780043" lon="10.398469999921565"><ele>218.0</ele><time>2026-04-20T15:09:30Z</time></trkpt><trkpt lat="45.55795863096672" lon="10.398404842254418"><ele>216.0</ele><time>2026-04-20T15:09:32Z</time></trkpt><trkpt lat="45.55801880001437" lon="10.398329803191299"><ele>218.16666666666666</ele><time>2026-04-20T15:09:35Z</time></trkpt><trkpt lat="45.55808343938623" lon="10.398254237365142"><ele>220.33333333333331</ele><time>2026-04-20T15:09:38Z</time></trkpt><trkpt lat="45.558137032713944" lon="10.398186875882963"><ele>222.5</ele><time>2026-04-20T15:09:40Z</time></trkpt><trkpt lat="45.55818589162094" lon="10.398106109371668"><ele>224.66666666666666</ele><time>2026-04-20T15:09:43Z</time></trkpt><trkpt lat="45.55824324543708" lon="10.398017426464255"><ele>226.83333333333331</ele><time>2026-04-20T15:09:45Z</time></trkpt><trkpt lat="45.5582866959069" lon="10.397940315741875"><ele>229.0</ele><time>2026-04-20T15:09:48Z</time></trkpt><trkpt lat="45.55834601507824" lon="10.397827727654374"><ele>228.99999999999997</ele><time>2026-04-20T15:09:51Z</time></trkpt><trkpt lat="45.55839633785647" lon="10.397733471873508"><ele>229.0</ele><time>2026-04-20T15:09:54Z</time></trkpt><trkpt lat="45.55845430348051" lon="10.39765008913325"><ele>229.0</ele><time>2026-04-20T15:09:58Z</time></trkpt><trkpt lat="45.55850921145447" lon="10.39757079738255"><ele>229.0</ele><time>2026-04-20T15:10:01Z</time></trkpt><trkpt lat="45.558563971920904" lon="10.39751131060999"><ele>228.99999999999997</ele><time>2026-04-20T15:10:04Z</time></trkpt><trkpt lat="45.558616068498196" lon="10.397432494358048"><ele>229.0</ele><time>2026-04-20T15:10:07Z</time></trkpt><trkpt lat="45.55867441277825" lon="10.397352922717479"><ele>232.99999999999997</ele><time>2026-04-20T15:10:10Z</time></trkpt><trkpt lat="45.55872772384899" lon="10.397274135306077"><ele>237.0</ele><time>2026-04-20T15:10:13Z</time></trkpt><trkpt lat="45.558776720845934" lon="10.397194509857023"><ele>241.0</ele><time>2026-04-20T15:10:16Z</time></trkpt><trkpt lat="45.55882346965011" lon="10.397113289043235"><ele>245.0</ele><time>2026-04-20T15:10:19Z</time></trkpt><trkpt lat="45.55887477303816" lon="10.397041873575905"><ele>248.99999999999997</ele><time>2026-04-20T15:10:22Z</time></trkpt><trkpt lat="45.558930117593896" lon="10.396960746014685"><ele>253.0</ele><time>2026-04-20T15:10:24Z</time></trkpt><trkpt lat="45.558976004296404" lon="10.396850778368982"><ele>253.00000000000003</ele><time>2026-04-20T15:10:27Z</time></trkpt><trkpt lat="45.55901918202166" lon="10.396775182459871"><ele>253.0</ele><time>2026-04-20T15:10:30Z</time></trkpt><trkpt lat="45.55905599406104" lon="10.39669308499793"><ele>253.00000000000003</ele><time>2026-04-20T15:10:33Z</time></trkpt><trkpt lat="45.559085705952775" lon="10.39661243763505"><ele>253.00000000000003</ele><time>2026-04-20T15:10:36Z</time></trkpt><trkpt lat="45.55911527221975" lon="10.396517091162426"><ele>253.0</ele><time>2026-04-20T15:10:39Z</time></trkpt><trkpt lat="45.5591482033307" lon="10.396426599916838"><ele>253.00000000000003</ele><time>2026-04-20T15:10:42Z</time></trkpt><trkpt lat="45.559185179749456" lon="10.396346156638634"><ele>253.00000000000003</ele><time>2026-04-20T15:10:45Z</time></trkpt><trkpt lat="45.55919976191418" lon="10.396240152480688"><ele>251.83333333333331</ele><time>2026-04-20T15:10:49Z</time></trkpt><trkpt lat="45.55924808236213" lon="10.396145653825412"><ele>250.66666666666666</ele><time>2026-04-20T15:10:53Z</time></trkpt><trkpt lat="45.5592703282355" lon="10.39604293135527"><ele>249.5</ele><time>2026-04-20T15:10:57Z</time></trkpt><trkpt lat="45.559286146684876" lon="10.39593656154554"><ele>248.33333333333331</ele><time>2026-04-20T15:11:01Z</time></trkpt><trkpt lat="45.55931510076324" lon="10.395834108539326"><ele>247.16666666666666</ele><time>2026-04-20T15:11:05Z</time></trkpt><trkpt lat="45.559316485806114" lon="10.39571552309831"><ele>246.0</ele><time>2026-04-20T15:11:09Z</time></trkpt><trkpt lat="45.559332383939356" lon="10.395602035643309"><ele>247.0</ele><time>2026-04-20T15:11:13Z</time></trkpt><trkpt lat="45.55933293314211" lon="10.39550069579387"><ele>248.0</ele><time>2026-04-20T15:11:16Z</time></trkpt><trkpt lat="45.55932846567211" lon="10.39538803908326"><ele>249.0</ele><time>2026-04-20T15:11:20Z</time></trkpt><trkpt lat="45.55931244686345" lon="10.39525721072621"><ele>250.0</ele><time>2026-04-20T15:11:24Z</time></trkpt><trkpt lat="45.55931521551852" lon="10.395165491783409"><ele>251.0</ele><time>2026-04-20T15:11:28Z</time></trkpt><trkpt lat="45.559301719985974" lon="10.3950593055307"><ele>252.0</ele><time>2026-04-20T15:11:32Z</time></trkpt><trkpt lat="45.55929333822968" lon="10.394961261363523"><ele>252.0</ele><time>2026-04-20T15:11:35Z</time></trkpt><trkpt lat="45.55928418359087" lon="10.394871330909698"><ele>252.0</ele><time>2026-04-20T15:11:38Z</time></trkpt><trkpt lat="45.55926785961823" lon="10.394748283607592"><ele>252.0</ele><time>2026-04-20T15:11:42Z</time></trkpt><trkpt lat="45.55923114693803" lon="10.394647050817682"><ele>252.0</ele><time>2026-04-20T15:11:46Z</time></trkpt><trkpt lat="45.55920778549206" lon="10.39455609097356"><ele>252.0</ele><time>2026-04-20T15:11:49Z</time></trkpt><trkpt lat="45.559180141833174" lon="10.394445891510458"><ele>252.0</ele><time>2026-04-20T15:11:52Z</time></trkpt><trkpt lat="45.55914447088933" lon="10.394346248418843"><ele>254.16666666666666</ele><time>2026-04-20T15:11:55Z</time></trkpt><trkpt lat="45.55910480444942" lon="10.394260668322636"><ele>256.3333333333333</ele><time>2026-04-20T15:11:57Z</time></trkpt><trkpt lat="45.55906390467803" lon="10.394161350667721"><ele>258.5</ele><time>2026-04-20T15:12:00Z</time></trkpt><trkpt lat="45.55903381656983" lon="10.394027643130345"><ele>260.66666666666663</ele><time>2026-04-20T15:12:02Z</time></trkpt><trkpt lat="45.559011377621864" lon="10.393937731001271"><ele>262.8333333333333</ele><time>2026-04-20T15:12:04Z</time></trkpt><trkpt lat="45.55897325014636" lon="10.39385199117293"><ele>265.0</ele><time>2026-04-20T15:12:06Z</time></trkpt><trkpt lat="45.55894619741596" lon="10.393767723423101"><ele>267.16666666666663</ele><time>2026-04-20T15:12:08Z</time></trkpt><trkpt lat="45.5589154120648" lon="10.393683892729044"><ele>269.3333333333333</ele><time>2026-04-20T15:12:10Z</time></trkpt><trkpt lat="45.55889115476142" lon="10.393587535927647"><ele>271.5</ele><time>2026-04-20T15:12:12Z</time></trkpt><trkpt lat="45.5588516305588" lon="10.393473536721231"><ele>273.6666666666667</ele><time>2026-04-20T15:12:15Z</time></trkpt><trkpt lat="45.558815198191674" lon="10.393363721832804"><ele>275.83333333333337</ele><time>2026-04-20T15:12:18Z</time></trkpt><trkpt lat="45.55881028204849" lon="10.393262499744859"><ele>278.0</ele><time>2026-04-20T15:12:21Z</time></trkpt><trkpt lat="45.558818335422146" lon="10.393151579386164"><ele>278.0</ele><time>2026-04-20T15:12:24Z</time></trkpt><trkpt lat="45.55881090032992" lon="10.393051687990829"><ele>278.0</ele><time>2026-04-20T15:12:27Z</time></trkpt><trkpt lat="45.558837289891045" lon="10.392944852873605"><ele>278.0</ele><time>2026-04-20T15:12:30Z</time></trkpt><trkpt lat="45.55884613144187" lon="10.392827030311988"><ele>278.0</ele><time>2026-04-20T15:12:33Z</time></trkpt><trkpt lat="45.558856786097294" lon="10.39271375417918"><ele>278.0</ele><time>2026-04-20T15:12:36Z</time></trkpt><trkpt lat="45.558862622197694" lon="10.392602790719955"><ele>278.0</ele><time>2026-04-20T15:12:39Z</time></trkpt><trkpt lat="45.55887823343662" lon="10.392481886903834"><ele>279.0</ele><time>2026-04-20T15:12:42Z</time></trkpt><trkpt lat="45.558898015581754" lon="10.392394099267491"><ele>280.0</ele><time>2026-04-20T15:12:45Z</time></trkpt><trkpt lat="45.55889120906037" lon="10.39228974080596"><ele>281.0</ele><time>2026-04-20T15:12:48Z</time></trkpt><trkpt lat="45.558894298709085" lon="10.392192127151386"><ele>282.0</ele><time>2026-04-20T15:12:51Z</time></trkpt><trkpt lat="45.55891505050123" lon="10.39203976011938"><ele>283.0</ele><time>2026-04-20T15:12:56Z</time></trkpt><trkpt lat="45.55891292678535" lon="10.391938400456935"><ele>284.0</ele><time>2026-04-20T15:12:59Z</time></trkpt><trkpt lat="45.5589326171848" lon="10.391811837116052"><ele>284.0</ele><time>2026-04-20T15:13:03Z</time></trkpt><trkpt lat="45.558924377561645" lon="10.391713946395035"><ele>284.0</ele><time>2026-04-20T15:13:05Z</time></trkpt><trkpt lat="45.55893373730451" lon="10.391601941924966"><ele>284.0</ele><time>2026-04-20T15:13:08Z</time></trkpt><trkpt lat="45.558938318376775" lon="10.391502974470306"><ele>284.0</ele><time>2026-04-20T15:13:11Z</time></trkpt><trkpt lat="45.558945405064875" lon="10.391392001769697"><ele>284.0</ele><time>2026-04-20T15:13:15Z</time></trkpt><trkpt lat="45.558965772861356" lon="10.391286115082114"><ele>284.0</ele><time>2026-04-20T15:13:18Z</time></trkpt><trkpt lat="45.5589740912948" lon="10.391189731370082"><ele>284.0</ele><time>2026-04-20T15:13:21Z</time></trkpt><trkpt lat="45.55895435430198" lon="10.391098134158739"><ele>284.0</ele><time>2026-04-20T15:13:24Z</time></trkpt><trkpt lat="45.559233399580705" lon="10.391737546542542"><ele>284.0</ele><time>2026-04-20T15:15:10Z</time></trkpt><trkpt lat="45.559244210877864" lon="10.3918513215556"><ele>284.0</ele><time>2026-04-20T15:15:13Z</time></trkpt><trkpt lat="45.5592757665594" lon="10.39195476224216"><ele>284.0</ele><time>2026-04-20T15:15:16Z</time></trkpt><trkpt lat="45.55929050866398" lon="10.39204347412362"><ele>284.0</ele><time>2026-04-20T15:15:18Z</time></trkpt><trkpt lat="45.55933363979446" lon="10.392143565712841"><ele>284.0</ele><time>2026-04-20T15:15:21Z</time></trkpt><trkpt lat="45.55937459170751" lon="10.39225843555527"><ele>284.0</ele><time>2026-04-20T15:15:26Z</time></trkpt><trkpt lat="45.55939949431503" lon="10.392349408647647"><ele>284.1428571428571</ele><time>2026-04-20T15:15:30Z</time></trkpt><trkpt lat="45.559427121762376" lon="10.392437851528735"><ele>284.2857142857143</ele><time>2026-04-20T15:15:33Z</time></trkpt><trkpt lat="45.55944524848108" lon="10.392540548955582"><ele>284.42857142857144</ele><time>2026-04-20T15:15:36Z</time></trkpt><trkpt lat="45.55946332693354" lon="10.392630752241788"><ele>284.57142857142856</ele><time>2026-04-20T15:15:39Z</time></trkpt><trkpt lat="45.559487607665396" lon="10.392730254121101"><ele>284.7142857142857</ele><time>2026-04-20T15:15:42Z</time></trkpt><trkpt lat="45.5595281037073" lon="10.392844545360912"><ele>284.85714285714283</ele><time>2026-04-20T15:15:45Z</time></trkpt><trkpt lat="45.559555143986636" lon="10.392927846250847"><ele>285.0</ele><time>2026-04-20T15:15:48Z</time></trkpt><trkpt lat="45.55957926238762" lon="10.393033692604527"><ele>289.0</ele><time>2026-04-20T15:15:51Z</time></trkpt><trkpt lat="45.55960606195408" lon="10.393126142386597"><ele>293.0</ele><time>2026-04-20T15:15:54Z</time></trkpt><trkpt lat="45.55965606374103" lon="10.393181425732166"><ele>297.0</ele><time>2026-04-20T15:15:56Z</time></trkpt><trkpt lat="45.55970799142126" lon="10.393117489178014"><ele>301.0</ele><time>2026-04-20T15:16:00Z</time></trkpt><trkpt lat="45.55970722823477" lon="10.393024159690636"><ele>305.0</ele><time>2026-04-20T15:16:03Z</time></trkpt><trkpt lat="45.55968012191875" lon="10.392908753875645"><ele>309.0</ele><time>2026-04-20T15:16:06Z</time></trkpt><trkpt lat="45.55965760898302" lon="10.392796479862461"><ele>313.0</ele><time>2026-04-20T15:16:10Z</time></trkpt><trkpt lat="45.55964345760481" lon="10.392704096477308"><ele>313.7142857142857</ele><time>2026-04-20T15:16:13Z</time></trkpt><trkpt lat="45.559628593468354" lon="10.392606880837171"><ele>314.42857142857144</ele><time>2026-04-20T15:16:16Z</time></trkpt><trkpt lat="45.55962028846166" lon="10.392507460591904"><ele>315.1428571428571</ele><time>2026-04-20T15:16:19Z</time></trkpt><trkpt lat="45.55961851404922" lon="10.392409613145341"><ele>315.8571428571429</ele><time>2026-04-20T15:16:23Z</time></trkpt><trkpt lat="45.55961416388786" lon="10.392310773351879"><ele>316.5714285714286</ele><time>2026-04-20T15:16:26Z</time></trkpt><trkpt lat="45.55963215738231" lon="10.392213438773414"><ele>317.2857142857143</ele><time>2026-04-20T15:16:29Z</time></trkpt><trkpt lat="45.559648564731646" lon="10.392093245730461"><ele>318.0</ele><time>2026-04-20T15:16:32Z</time></trkpt><trkpt lat="45.5596569552694" lon="10.391989311112392"><ele>318.1666666666667</ele><time>2026-04-20T15:16:35Z</time></trkpt><trkpt lat="45.559678324487535" lon="10.391880368624616"><ele>318.3333333333333</ele><time>2026-04-20T15:16:38Z</time></trkpt><trkpt lat="45.559698574187564" lon="10.391766595368916"><ele>318.5</ele><time>2026-04-20T15:16:41Z</time></trkpt><trkpt lat="45.559713789056865" lon="10.391662373482983"><ele>318.66666666666663</ele><time>2026-04-20T15:16:44Z</time></trkpt><trkpt lat="45.55972615994694" lon="10.391551132154289"><ele>318.8333333333333</ele><time>2026-04-20T15:16:47Z</time></trkpt><trkpt lat="45.559752695052524" lon="10.391440312131737"><ele>319.0</ele><time>2026-04-20T15:16:50Z</time></trkpt><trkpt lat="45.55977217710364" lon="10.391345978110891"><ele>317.8571428571429</ele><time>2026-04-20T15:16:53Z</time></trkpt><trkpt lat="45.55979224521797" lon="10.391249966810951"><ele>316.71428571428567</ele><time>2026-04-20T15:16:56Z</time></trkpt><trkpt lat="45.55978854126163" lon="10.391155553093554"><ele>315.57142857142856</ele><time>2026-04-20T15:16:59Z</time></trkpt><trkpt lat="45.559794496208106" lon="10.39104253461595"><ele>314.42857142857144</ele><time>2026-04-20T15:17:03Z</time></trkpt><trkpt lat="45.559799290427364" lon="10.390942703146473"><ele>313.28571428571433</ele><time>2026-04-20T15:17:07Z</time></trkpt><trkpt lat="45.5598631871987" lon="10.390921033987674"><ele>312.1428571428571</ele><time>2026-04-20T15:17:11Z</time></trkpt><trkpt lat="45.55990449490886" lon="10.390990051973525"><ele>311.0</ele><time>2026-04-20T15:17:14Z</time></trkpt><trkpt lat="45.559908622266946" lon="10.391085302360866"><ele>311.0</ele><time>2026-04-20T15:17:18Z</time></trkpt><trkpt lat="45.55990693057589" lon="10.391187248686943"><ele>311.0</ele><time>2026-04-20T15:17:21Z</time></trkpt><trkpt lat="45.55992991473247" lon="10.39131100127997"><ele>311.0</ele><time>2026-04-20T15:17:26Z</time></trkpt><trkpt lat="45.55994706912155" lon="10.391412556842692"><ele>311.0</ele><time>2026-04-20T15:17:30Z</time></trkpt><trkpt lat="45.55997704631533" lon="10.391496679413365"><ele>311.0</ele><time>2026-04-20T15:17:34Z</time></trkpt><trkpt lat="45.559967205203485" lon="10.391598049470616"><ele>311.0</ele><time>2026-04-20T15:17:37Z</time></trkpt><trkpt lat="45.55998301645452" lon="10.39169479478704"><ele>311.0</ele><time>2026-04-20T15:17:40Z</time></trkpt><trkpt lat="45.559999892440494" lon="10.391796336397537"><ele>312.0</ele><time>2026-04-20T15:17:44Z</time></trkpt><trkpt lat="45.56001414257825" lon="10.39189594066751"><ele>313.0</ele><time>2026-04-20T15:17:47Z</time></trkpt><trkpt lat="45.56002123871435" lon="10.391999018861886"><ele>314.0</ele><time>2026-04-20T15:17:51Z</time></trkpt><trkpt lat="45.56002906355333" lon="10.392096296902572"><ele>315.0</ele><time>2026-04-20T15:17:54Z</time></trkpt><trkpt lat="45.560041394073245" lon="10.392190757762318"><ele>316.0</ele><time>2026-04-20T15:17:57Z</time></trkpt><trkpt lat="45.56005979063786" lon="10.392298928318136"><ele>317.0</ele><time>2026-04-20T15:18:01Z</time></trkpt><trkpt lat="45.56007461859303" lon="10.39239047129476"><ele>318.0</ele><time>2026-04-20T15:18:04Z</time></trkpt><trkpt lat="45.56009418892351" lon="10.39248048453541"><ele>318.0</ele><time>2026-04-20T15:18:07Z</time></trkpt><trkpt lat="45.56011289939291" lon="10.392569055234103"><ele>318.0</ele><time>2026-04-20T15:18:10Z</time></trkpt><trkpt lat="45.56012589658703" lon="10.392676569300749"><ele>318.0</ele><time>2026-04-20T15:18:13Z</time></trkpt><trkpt lat="45.560144876529506" lon="10.392783407072205"><ele>318.0</ele><time>2026-04-20T15:18:17Z</time></trkpt><trkpt lat="45.560173315618314" lon="10.39288844939002"><ele>318.0</ele><time>2026-04-20T15:18:21Z</time></trkpt><trkpt lat="45.56020157020306" lon="10.393000549407317"><ele>318.0</ele><time>2026-04-20T15:18:25Z</time></trkpt><trkpt lat="45.56023237261534" lon="10.393096347278288"><ele>317.1666666666667</ele><time>2026-04-20T15:18:29Z</time></trkpt><trkpt lat="45.56028279867945" lon="10.393208111416588"><ele>316.3333333333333</ele><time>2026-04-20T15:18:33Z</time></trkpt><trkpt lat="45.56031268057955" lon="10.393303557588839"><ele>315.5</ele><time>2026-04-20T15:18:37Z</time></trkpt><trkpt lat="45.560345520983994" lon="10.393381474702393"><ele>314.66666666666663</ele><time>2026-04-20T15:18:40Z</time></trkpt><trkpt lat="45.56039370267938" lon="10.393482242919195"><ele>313.8333333333333</ele><time>2026-04-20T15:18:43Z</time></trkpt><trkpt lat="45.56044212230143" lon="10.39357860209283"><ele>313.0</ele><time>2026-04-20T15:18:47Z</time></trkpt><trkpt lat="45.56049098201878" lon="10.393645047929107"><ele>313.0</ele><time>2026-04-20T15:18:51Z</time></trkpt><trkpt lat="45.56050499097183" lon="10.393746840481835"><ele>313.0</ele><time>2026-04-20T15:21:21Z</time></trkpt><trkpt lat="45.56045973467248" lon="10.393663776802848"><ele>313.0</ele><time>2026-04-20T15:21:28Z</time></trkpt><trkpt lat="45.56042426218376" lon="10.393534912383098"><ele>313.0</ele><time>2026-04-20T15:21:30Z</time></trkpt><trkpt lat="45.56036629648481" lon="10.393430095339681"><ele>313.0</ele><time>2026-04-20T15:21:32Z</time></trkpt><trkpt lat="45.5602941109412" lon="10.39328228911915"><ele>313.0</ele><time>2026-04-20T15:21:34Z</time></trkpt><trkpt lat="45.5602609782653" lon="10.393193917410192"><ele>313.0</ele><time>2026-04-20T15:21:35Z</time></trkpt><trkpt lat="45.560226540414355" lon="10.39310093744837"><ele>313.0</ele><time>2026-04-20T15:21:36Z</time></trkpt><trkpt lat="45.560187299824676" lon="10.393002781720815"><ele>313.0</ele><time>2026-04-20T15:21:37Z</time></trkpt><trkpt lat="45.560148984925746" lon="10.392884837144816"><ele>313.0</ele><time>2026-04-20T15:21:38Z</time></trkpt><trkpt lat="45.5601162413085" lon="10.392763650653595"><ele>313.0</ele><time>2026-04-20T15:21:39Z</time></trkpt><trkpt lat="45.56008815234105" lon="10.392654763217168"><ele>314.0</ele><time>2026-04-20T15:21:40Z</time></trkpt><trkpt lat="45.560068512459715" lon="10.392534378160791"><ele>315.0</ele><time>2026-04-20T15:21:41Z</time></trkpt><trkpt lat="45.56004382875547" lon="10.392394858941131"><ele>316.0</ele><time>2026-04-20T15:21:42Z</time></trkpt><trkpt lat="45.560032595500715" lon="10.392261842049788"><ele>317.0</ele><time>2026-04-20T15:21:43Z</time></trkpt><trkpt lat="45.5600136023272" lon="10.392117271843537"><ele>318.0</ele><time>2026-04-20T15:21:44Z</time></trkpt><trkpt lat="45.55999608106562" lon="10.39197796517652"><ele>318.2</ele><time>2026-04-20T15:21:45Z</time></trkpt><trkpt lat="45.55998288111033" lon="10.391834614627937"><ele>318.4</ele><time>2026-04-20T15:21:46Z</time></trkpt><trkpt lat="45.559970264116586" lon="10.39167899416227"><ele>318.59999999999997</ele><time>2026-04-20T15:21:47Z</time></trkpt><trkpt lat="45.559960328428915" lon="10.391525725500543"><ele>318.8</ele><time>2026-04-20T15:21:48Z</time></trkpt><trkpt lat="45.55995599298469" lon="10.391377725144368"><ele>319.0</ele><time>2026-04-20T15:21:49Z</time></trkpt><trkpt lat="45.559950031403766" lon="10.391249136100514"><ele>317.8571428571429</ele><time>2026-04-20T15:21:50Z</time></trkpt><trkpt lat="45.559959345469764" lon="10.391136586869191"><ele>316.71428571428567</ele><time>2026-04-20T15:21:51Z</time></trkpt><trkpt lat="45.55996348826862" lon="10.391034464587026"><ele>315.57142857142856</ele><time>2026-04-20T15:21:52Z</time></trkpt><trkpt lat="45.55996077859171" lon="10.390943707945581"><ele>314.42857142857144</ele><time>2026-04-20T15:21:53Z</time></trkpt><trkpt lat="45.55988709773332" lon="10.390843161805261"><ele>313.28571428571433</ele><time>2026-04-20T15:21:55Z</time></trkpt><trkpt lat="45.559824065139225" lon="10.390856910292596"><ele>312.1428571428571</ele><time>2026-04-20T15:21:56Z</time></trkpt><trkpt lat="45.55977571504806" lon="10.390925155146556"><ele>311.0</ele><time>2026-04-20T15:21:57Z</time></trkpt><trkpt lat="45.559781817991826" lon="10.391116279662512"><ele>311.0</ele><time>2026-04-20T15:21:59Z</time></trkpt><trkpt lat="45.559779987816206" lon="10.391211543329579"><ele>311.0</ele><time>2026-04-20T15:22:00Z</time></trkpt><trkpt lat="45.55976726329465" lon="10.391312410360062"><ele>311.0</ele><time>2026-04-20T15:22:01Z</time></trkpt><trkpt lat="45.559747533179944" lon="10.391418816527503"><ele>311.0</ele><time>2026-04-20T15:22:02Z</time></trkpt><trkpt lat="45.5597263840509" lon="10.391532430166277"><ele>311.0</ele><time>2026-04-20T15:22:03Z</time></trkpt><trkpt lat="45.559712003739925" lon="10.39165180785312"><ele>311.0</ele><time>2026-04-20T15:22:04Z</time></trkpt><trkpt lat="45.559693699165344" lon="10.391774913879766"><ele>312.40000000000003</ele><time>2026-04-20T15:22:05Z</time></trkpt><trkpt lat="45.55967761195703" lon="10.39189786104279"><ele>313.8</ele><time>2026-04-20T15:22:06Z</time></trkpt><trkpt lat="45.559652736514835" lon="10.392020455034473"><ele>315.20000000000005</ele><time>2026-04-20T15:22:07Z</time></trkpt><trkpt lat="45.55963549451571" lon="10.392151458752586"><ele>316.6</ele><time>2026-04-20T15:22:08Z</time></trkpt><trkpt lat="45.55961777203367" lon="10.392284715620379"><ele>318.0</ele><time>2026-04-20T15:22:09Z</time></trkpt><trkpt lat="45.55961364260356" lon="10.392422898408359"><ele>318.0</ele><time>2026-04-20T15:22:10Z</time></trkpt><trkpt lat="45.559600063385886" lon="10.392574608829602"><ele>318.0</ele><time>2026-04-20T15:22:11Z</time></trkpt><trkpt lat="45.559611877321" lon="10.392722124891506"><ele>318.0</ele><time>2026-04-20T15:22:12Z</time></trkpt><trkpt lat="45.55963437116272" lon="10.392863410342137"><ele>318.0</ele><time>2026-04-20T15:22:13Z</time></trkpt><trkpt lat="45.55966847141612" lon="10.392995002049295"><ele>318.0</ele><time>2026-04-20T15:22:14Z</time></trkpt><trkpt lat="45.559690395914664" lon="10.393097085998315"><ele>317.1666666666667</ele><time>2026-04-20T15:22:15Z</time></trkpt><trkpt lat="45.559664922305686" lon="10.393208410006713"><ele>316.3333333333333</ele><time>2026-04-20T15:22:17Z</time></trkpt><trkpt lat="45.559574372861604" lon="10.393180536144454"><ele>315.5</ele><time>2026-04-20T15:22:19Z</time></trkpt><trkpt lat="45.55955564629105" lon="10.393085139601766"><ele>314.66666666666663</ele><time>2026-04-20T15:22:20Z</time></trkpt><trkpt lat="45.559527574133114" lon="10.392909335589744"><ele>313.8333333333333</ele><time>2026-04-20T15:22:22Z</time></trkpt><trkpt lat="45.55950227957447" lon="10.392815076315152"><ele>313.0</ele><time>2026-04-20T15:22:23Z</time></trkpt><trkpt lat="45.559477092478055" lon="10.392710356282779"><ele>308.3333333333333</ele><time>2026-04-20T15:22:24Z</time></trkpt><trkpt lat="45.55945334760709" lon="10.392617122360738"><ele>303.66666666666663</ele><time>2026-04-20T15:22:25Z</time></trkpt><trkpt lat="45.55941641567811" lon="10.392516177096288"><ele>299.0</ele><time>2026-04-20T15:22:26Z</time></trkpt><trkpt lat="45.55939640024788" lon="10.392399324006682"><ele>294.3333333333333</ele><time>2026-04-20T15:22:27Z</time></trkpt><trkpt lat="45.559368598758844" lon="10.392284622579965"><ele>289.6666666666667</ele><time>2026-04-20T15:22:28Z</time></trkpt><trkpt lat="45.559337837444474" lon="10.39216707422456"><ele>285.0</ele><time>2026-04-20T15:22:29Z</time></trkpt><trkpt lat="45.559308475250134" lon="10.39204649731348"><ele>284.8</ele><time>2026-04-20T15:22:30Z</time></trkpt><trkpt lat="45.559276602218944" lon="10.391921425885453"><ele>284.6</ele><time>2026-04-20T15:22:31Z</time></trkpt><trkpt lat="45.559248112701724" lon="10.391794595257526"><ele>284.4</ele><time>2026-04-20T15:22:32Z</time></trkpt><trkpt lat="45.559224203678305" lon="10.391662597657742"><ele>284.2</ele><time>2026-04-20T15:22:33Z</time></trkpt><trkpt lat="45.559207259387016" lon="10.391521934957662"><ele>284.0</ele><time>2026-04-20T15:22:34Z</time></trkpt><trkpt lat="45.55918776277108" lon="10.391380463531343"><ele>283.59999999999997</ele><time>2026-04-20T15:22:35Z</time></trkpt><trkpt lat="45.55917776323465" lon="10.391235597380964"><ele>283.2</ele><time>2026-04-20T15:22:36Z</time></trkpt><trkpt lat="45.559174731581024" lon="10.391091599833173"><ele>282.79999999999995</ele><time>2026-04-20T15:22:37Z</time></trkpt><trkpt lat="45.559176215334894" lon="10.390955052772796"><ele>282.4</ele><time>2026-04-20T15:22:38Z</time></trkpt><trkpt lat="45.55918952318555" lon="10.390829461925351"><ele>282.0</ele><time>2026-04-20T15:22:39Z</time></trkpt><trkpt lat="45.55920292632133" lon="10.390725563592936"><ele>282.0</ele><time>2026-04-20T15:22:40Z</time></trkpt><trkpt lat="45.55918675946302" lon="10.390589617193376"><ele>282.0</ele><time>2026-04-20T15:22:42Z</time></trkpt><trkpt lat="45.559076160638504" lon="10.390566264056254"><ele>282.0</ele><time>2026-04-20T15:22:44Z</time></trkpt><trkpt lat="45.55902036105865" lon="10.390714651256394"><ele>282.0</ele><time>2026-04-20T15:22:46Z</time></trkpt><trkpt lat="45.55900758767303" lon="10.390839222915517"><ele>282.0</ele><time>2026-04-20T15:22:48Z</time></trkpt><trkpt lat="45.55898852655133" lon="10.390942982320208"><ele>282.0</ele><time>2026-04-20T15:22:51Z</time></trkpt><trkpt lat="45.55893984145407" lon="10.391123592022014"><ele>282.0</ele><time>2026-04-20T15:24:01Z</time></trkpt><trkpt lat="45.558953035512516" lon="10.391256730132719"><ele>282.0</ele><time>2026-04-20T15:24:04Z</time></trkpt><trkpt lat="45.558930023829895" lon="10.391377982918018"><ele>282.0</ele><time>2026-04-20T15:24:06Z</time></trkpt><trkpt lat="45.558924392558204" lon="10.391533168044651"><ele>282.0</ele><time>2026-04-20T15:24:08Z</time></trkpt><trkpt lat="45.55891845188701" lon="10.39162362051921"><ele>282.2857142857143</ele><time>2026-04-20T15:24:09Z</time></trkpt><trkpt lat="45.55891517490557" lon="10.391717727945913"><ele>282.57142857142856</ele><time>2026-04-20T15:24:10Z</time></trkpt><trkpt lat="45.55891273726315" lon="10.391819064835637"><ele>282.85714285714283</ele><time>2026-04-20T15:24:11Z</time></trkpt><trkpt lat="45.558909348799226" lon="10.391916911088042"><ele>283.1428571428571</ele><time>2026-04-20T15:24:12Z</time></trkpt><trkpt lat="45.558903561336216" lon="10.392021858294548"><ele>283.4285714285714</ele><time>2026-04-20T15:24:13Z</time></trkpt><trkpt lat="45.55889497259262" lon="10.39213363210958"><ele>283.7142857142857</ele><time>2026-04-20T15:24:14Z</time></trkpt><trkpt lat="45.558891442774694" lon="10.392251852342632"><ele>284.0</ele><time>2026-04-20T15:24:15Z</time></trkpt><trkpt lat="45.55888475019724" lon="10.392374364803404"><ele>284.2</ele><time>2026-04-20T15:24:16Z</time></trkpt><trkpt lat="45.558878511531944" lon="10.39250055222935"><ele>284.4</ele><time>2026-04-20T15:24:17Z</time></trkpt><trkpt lat="45.55886839243828" lon="10.392632901082097"><ele>284.6</ele><time>2026-04-20T15:24:18Z</time></trkpt><trkpt lat="45.55884868783663" lon="10.39276626788154"><ele>284.8</ele><time>2026-04-20T15:24:19Z</time></trkpt><trkpt lat="45.55883493718428" lon="10.392901378008203"><ele>285.0</ele><time>2026-04-20T15:24:20Z</time></trkpt><trkpt lat="45.55882156758663" lon="10.393055576014193"><ele>283.6</ele><time>2026-04-20T15:24:21Z</time></trkpt><trkpt lat="45.55881075975055" lon="10.393191812621605"><ele>282.2</ele><time>2026-04-20T15:24:22Z</time></trkpt><trkpt lat="45.55882070068524" lon="10.393320051665796"><ele>280.8</ele><time>2026-04-20T15:24:23Z</time></trkpt><trkpt lat="45.558843675670346" lon="10.39346013945508"><ele>279.4</ele><time>2026-04-20T15:24:24Z</time></trkpt><trkpt lat="45.558874682183955" lon="10.393593818790357"><ele>278.0</ele><time>2026-04-20T15:24:25Z</time></trkpt><trkpt lat="45.55891298825127" lon="10.393720211323226"><ele>278.0</ele><time>2026-04-20T15:24:26Z</time></trkpt><trkpt lat="45.55896079290783" lon="10.393832971019714"><ele>278.0</ele><time>2026-04-20T15:24:27Z</time></trkpt><trkpt lat="45.55900792836106" lon="10.393943518401159"><ele>278.0</ele><time>2026-04-20T15:24:28Z</time></trkpt><trkpt lat="45.559057934236755" lon="10.394061385552627"><ele>278.0</ele><time>2026-04-20T15:24:29Z</time></trkpt><trkpt lat="45.559097425479614" lon="10.394179202156396"><ele>278.0</ele><time>2026-04-20T15:24:30Z</time></trkpt><trkpt lat="45.559145421200846" lon="10.394306928589733"><ele>275.4</ele><time>2026-04-20T15:24:31Z</time></trkpt><trkpt lat="45.559184971121525" lon="10.394424087747002"><ele>272.8</ele><time>2026-04-20T15:24:32Z</time></trkpt><trkpt lat="45.55921908338653" lon="10.394550136697731"><ele>270.2</ele><time>2026-04-20T15:24:33Z</time></trkpt><trkpt lat="45.55925434798158" lon="10.394666436540945"><ele>267.6</ele><time>2026-04-20T15:24:34Z</time></trkpt><trkpt lat="45.559284167265076" lon="10.394786849141015"><ele>265.0</ele><time>2026-04-20T15:24:35Z</time></trkpt><trkpt lat="45.55929995529609" lon="10.394911681234818"><ele>262.8333333333333</ele><time>2026-04-20T15:24:36Z</time></trkpt><trkpt lat="45.55934053394595" lon="10.395015211936144"><ele>260.66666666666663</ele><time>2026-04-20T15:24:37Z</time></trkpt><trkpt lat="45.55934756061576" lon="10.395155153320976"><ele>258.5</ele><time>2026-04-20T15:24:38Z</time></trkpt><trkpt lat="45.559357960346894" lon="10.395258926917974"><ele>256.3333333333333</ele><time>2026-04-20T15:24:39Z</time></trkpt><trkpt lat="45.559359454364206" lon="10.395349212805165"><ele>254.16666666666666</ele><time>2026-04-20T15:24:40Z</time></trkpt><trkpt lat="45.559362288174825" lon="10.395470632911824"><ele>252.0</ele><time>2026-04-20T15:24:41Z</time></trkpt><trkpt lat="45.55936497185157" lon="10.395585620496957"><ele>250.8</ele><time>2026-04-20T15:24:42Z</time></trkpt><trkpt lat="45.559361327490286" lon="10.395694332185373"><ele>249.6</ele><time>2026-04-20T15:24:43Z</time></trkpt><trkpt lat="45.55934889925147" lon="10.395841318055284"><ele>248.40000000000003</ele><time>2026-04-20T15:24:44Z</time></trkpt><trkpt lat="45.55930823904513" lon="10.395984474605772"><ele>247.20000000000002</ele><time>2026-04-20T15:24:45Z</time></trkpt><trkpt lat="45.55926328615868" lon="10.396118097237848"><ele>246.0</ele><time>2026-04-20T15:24:46Z</time></trkpt><trkpt lat="45.55922140194869" lon="10.396243793922872"><ele>247.4</ele><time>2026-04-20T15:24:47Z</time></trkpt><trkpt lat="45.55918385505354" lon="10.396394474009542"><ele>248.8</ele><time>2026-04-20T15:24:48Z</time></trkpt><trkpt lat="45.55913993018293" lon="10.396528256146054"><ele>250.20000000000002</ele><time>2026-04-20T15:24:49Z</time></trkpt><trkpt lat="45.559079303963905" lon="10.396657400628058"><ele>251.60000000000002</ele><time>2026-04-20T15:24:50Z</time></trkpt><trkpt lat="45.55901534932794" lon="10.396798315218764"><ele>253.0</ele><time>2026-04-20T15:24:51Z</time></trkpt><trkpt lat="45.55894082789115" lon="10.396934327473547"><ele>253.0</ele><time>2026-04-20T15:24:52Z</time></trkpt><trkpt lat="45.558862018621575" lon="10.39706078395881"><ele>253.0</ele><time>2026-04-20T15:24:53Z</time></trkpt><trkpt lat="45.558775837019255" lon="10.397166470262867"><ele>253.0</ele><time>2026-04-20T15:24:54Z</time></trkpt><trkpt lat="45.55869874913053" lon="10.397297496209793"><ele>253.0</ele><time>2026-04-20T15:24:55Z</time></trkpt><trkpt lat="45.5586208666316" lon="10.397406402559346"><ele>248.2</ele><time>2026-04-20T15:24:56Z</time></trkpt><trkpt lat="45.55855217799096" lon="10.397505728966763"><ele>243.4</ele><time>2026-04-20T15:24:57Z</time></trkpt><trkpt lat="45.55848703836673" lon="10.397604617054343"><ele>238.59999999999997</ele><time>2026-04-20T15:24:58Z</time></trkpt><trkpt lat="45.5584210966954" lon="10.397714140282764"><ele>233.79999999999998</ele><time>2026-04-20T15:24:59Z</time></trkpt><trkpt lat="45.55835336467678" lon="10.397819305870833"><ele>229.0</ele><time>2026-04-20T15:25:00Z</time></trkpt><trkpt lat="45.55828507629732" lon="10.397931949651605"><ele>234.0</ele><time>2026-04-20T15:25:01Z</time></trkpt><trkpt lat="45.55820771714069" lon="10.398044639441505"><ele>239.0</ele><time>2026-04-20T15:25:02Z</time></trkpt><trkpt lat="45.55812334498214" lon="10.398152886611863"><ele>244.0</ele><time>2026-04-20T15:25:03Z</time></trkpt><trkpt lat="45.55804208298989" lon="10.398268056022966"><ele>249.0</ele><time>2026-04-20T15:25:04Z</time></trkpt><trkpt lat="45.557955832614944" lon="10.398375368707098"><ele>249.0</ele><time>2026-04-20T15:25:05Z</time></trkpt><trkpt lat="45.55786940279221" lon="10.398477678229563"><ele>248.99999999999997</ele><time>2026-04-20T15:25:06Z</time></trkpt><trkpt lat="45.55778381667165" lon="10.39857248618042"><ele>248.99999999999997</ele><time>2026-04-20T15:25:07Z</time></trkpt><trkpt lat="45.557713471348926" lon="10.398679601334063"><ele>249.0</ele><time>2026-04-20T15:25:08Z</time></trkpt><trkpt lat="45.55765893617926" lon="10.398801878230136"><ele>249.0</ele><time>2026-04-20T15:25:09Z</time></trkpt><trkpt lat="45.557611554056706" lon="10.398906192910992"><ele>245.83333333333334</ele><time>2026-04-20T15:25:10Z</time></trkpt><trkpt lat="45.55757267384522" lon="10.3990573447564"><ele>242.66666666666669</ele><time>2026-04-20T15:25:12Z</time></trkpt><trkpt lat="45.557527463433594" lon="10.399124321786463"><ele>239.5</ele><time>2026-04-20T15:25:13Z</time></trkpt><trkpt lat="45.55745223974983" lon="10.399190324356255"><ele>236.33333333333334</ele><time>2026-04-20T15:25:14Z</time></trkpt><trkpt lat="45.55737563849167" lon="10.399250340198696"><ele>233.16666666666669</ele><time>2026-04-20T15:25:15Z</time></trkpt><trkpt lat="45.55730207967184" lon="10.399331142293198"><ele>230.0</ele><time>2026-04-20T15:25:16Z</time></trkpt><trkpt lat="45.55722135585409" lon="10.39941041216123"><ele>230.00000000000003</ele><time>2026-04-20T15:25:17Z</time></trkpt><trkpt lat="45.557142667392064" lon="10.399482239442488"><ele>230.0</ele><time>2026-04-20T15:25:18Z</time></trkpt><trkpt lat="45.557077965578856" lon="10.399546685048039"><ele>230.0</ele><time>2026-04-20T15:25:19Z</time></trkpt><trkpt lat="45.557017607806856" lon="10.399608406044967"><ele>230.0</ele><time>2026-04-20T15:25:20Z</time></trkpt><trkpt lat="45.556983021555645" lon="10.399699776897737"><ele>230.00000000000003</ele><time>2026-04-20T15:25:21Z</time></trkpt><trkpt lat="45.55696120175115" lon="10.399811999451536"><ele>230.0</ele><time>2026-04-20T15:25:22Z</time></trkpt><trkpt lat="45.55694930142387" lon="10.399922264886499"><ele>230.4285714285714</ele><time>2026-04-20T15:25:23Z</time></trkpt><trkpt lat="45.55695573783754" lon="10.400016991344403"><ele>230.85714285714283</ele><time>2026-04-20T15:25:24Z</time></trkpt><trkpt lat="45.55698244975541" lon="10.400102961917172"><ele>231.28571428571428</ele><time>2026-04-20T15:25:25Z</time></trkpt><trkpt lat="45.557032717249314" lon="10.400183051224671"><ele>231.7142857142857</ele><time>2026-04-20T15:25:26Z</time></trkpt><trkpt lat="45.55707284071893" lon="10.400279268703258"><ele>232.1428571428571</ele><time>2026-04-20T15:25:27Z</time></trkpt><trkpt lat="45.55711840500979" lon="10.400364387987386"><ele>232.57142857142858</ele><time>2026-04-20T15:25:28Z</time></trkpt><trkpt lat="45.55711016857539" lon="10.400463502392942"><ele>233.0</ele><time>2026-04-20T15:25:29Z</time></trkpt><trkpt lat="45.55706771309299" lon="10.400546723762941"><ele>232.83333333333334</ele><time>2026-04-20T15:25:30Z</time></trkpt><trkpt lat="45.55700301004501" lon="10.400591173267674"><ele>232.66666666666669</ele><time>2026-04-20T15:25:31Z</time></trkpt><trkpt lat="45.55692416626377" lon="10.40058386428588"><ele>232.5</ele><time>2026-04-20T15:25:32Z</time></trkpt><trkpt lat="45.5568603488557" lon="10.400516149442351"><ele>232.33333333333331</ele><time>2026-04-20T15:25:33Z</time></trkpt><trkpt lat="45.55678426707695" lon="10.40049218066432"><ele>232.16666666666666</ele><time>2026-04-20T15:25:34Z</time></trkpt><trkpt lat="45.55670778963919" lon="10.400468797718068"><ele>232.0</ele><time>2026-04-20T15:25:35Z</time></trkpt><trkpt lat="45.55662215707206" lon="10.400444422759202"><ele>227.6</ele><time>2026-04-20T15:25:36Z</time></trkpt><trkpt lat="45.55653664497522" lon="10.400422430677354"><ele>223.2</ele><time>2026-04-20T15:25:37Z</time></trkpt><trkpt lat="45.556446535765424" lon="10.40040142013625"><ele>218.8</ele><time>2026-04-20T15:25:38Z</time></trkpt><trkpt lat="45.556347710353975" lon="10.400379309559526"><ele>214.4</ele><time>2026-04-20T15:25:39Z</time></trkpt><trkpt lat="45.55624709117934" lon="10.40036661081645"><ele>210.0</ele><time>2026-04-20T15:25:40Z</time></trkpt><trkpt lat="45.556134116464804" lon="10.400366044783768"><ele>207.0</ele><time>2026-04-20T15:25:41Z</time></trkpt><trkpt lat="45.55601849931326" lon="10.40033348553808"><ele>204.0</ele><time>2026-04-20T15:25:42Z</time></trkpt><trkpt lat="45.55591410283004" lon="10.400291773284854"><ele>201.0</ele><time>2026-04-20T15:25:43Z</time></trkpt><trkpt lat="45.55579417193112" lon="10.40025455612685"><ele>198.0</ele><time>2026-04-20T15:25:44Z</time></trkpt><trkpt lat="45.555674228322054" lon="10.400233320198"><ele>198.0</ele><time>2026-04-20T15:25:45Z</time></trkpt><trkpt lat="45.555562155007586" lon="10.40020941536075"><ele>198.0</ele><time>2026-04-20T15:25:46Z</time></trkpt><trkpt lat="45.55545659227648" lon="10.400181007639329"><ele>198.0</ele><time>2026-04-20T15:25:47Z</time></trkpt><trkpt lat="45.555345434831565" lon="10.400137472445326"><ele>198.0</ele><time>2026-04-20T15:25:48Z</time></trkpt><trkpt lat="45.55516161640713" lon="10.400122011306085"><ele>197.66666666666666</ele><time>2026-04-20T15:25:49Z</time></trkpt><trkpt lat="45.55506222968914" lon="10.400105040588459"><ele>197.33333333333331</ele><time>2026-04-20T15:25:50Z</time></trkpt><trkpt lat="45.55496695732501" lon="10.400114000278199"><ele>197.0</ele><time>2026-04-20T15:25:51Z</time></trkpt><trkpt lat="45.554881672385264" lon="10.400124941437866"><ele>196.66666666666666</ele><time>2026-04-20T15:25:52Z</time></trkpt><trkpt lat="45.5548082729995" lon="10.400140955200868"><ele>196.33333333333331</ele><time>2026-04-20T15:25:53Z</time></trkpt><trkpt lat="45.554740385892266" lon="10.400110869065273"><ele>196.0</ele><time>2026-04-20T15:25:54Z</time></trkpt><trkpt lat="45.554647500851964" lon="10.40007629569348"><ele>196.0</ele><time>2026-04-20T15:25:56Z</time></trkpt><trkpt lat="45.55461102034335" lon="10.399921498039182"><ele>196.0</ele><time>2026-04-20T15:25:58Z</time></trkpt><trkpt lat="45.55457488170823" lon="10.39980778942568"><ele>196.0</ele><time>2026-04-20T15:26:00Z</time></trkpt><trkpt lat="45.55459689360447" lon="10.399671787956622"><ele>196.0</ele><time>2026-04-20T15:26:02Z</time></trkpt><trkpt lat="45.554512873797115" lon="10.399544506539026"><ele>196.0</ele><time>2026-04-20T15:26:04Z</time></trkpt><trkpt lat="45.55444349259354" lon="10.399531561589509"><ele>193.60000000000002</ele><time>2026-04-20T15:26:05Z</time></trkpt><trkpt lat="45.55433826979877" lon="10.399457028408529"><ele>191.2</ele><time>2026-04-20T15:26:07Z</time></trkpt><trkpt lat="45.55424205812337" lon="10.399407320828779"><ele>188.8</ele><time>2026-04-20T15:26:09Z</time></trkpt><trkpt lat="45.55414655778581" lon="10.399314457233016"><ele>186.39999999999998</ele><time>2026-04-20T15:26:11Z</time></trkpt><trkpt lat="45.55406185124121" lon="10.39925595568922"><ele>184.0</ele><time>2026-04-20T15:26:13Z</time></trkpt><trkpt lat="45.55396546916972" lon="10.399199710572201"><ele>184.0</ele><time>2026-04-20T15:26:15Z</time></trkpt><trkpt lat="45.553876683366546" lon="10.39911172125479"><ele>184.0</ele><time>2026-04-20T15:26:17Z</time></trkpt><trkpt lat="45.553812477073556" lon="10.399115001411708"><ele>184.0</ele><time>2026-04-20T15:26:18Z</time></trkpt><trkpt lat="45.55371789874245" lon="10.399046786898865"><ele>184.0</ele><time>2026-04-20T15:26:20Z</time></trkpt><trkpt lat="45.55362431975113" lon="10.398993830423407"><ele>184.0</ele><time>2026-04-20T15:26:22Z</time></trkpt><trkpt lat="45.55354487932366" lon="10.398938129941927"><ele>184.0</ele><time>2026-04-20T15:26:24Z</time></trkpt><trkpt lat="45.553456626798805" lon="10.398884304404614"><ele>184.0</ele><time>2026-04-20T15:26:26Z</time></trkpt><trkpt lat="45.5533693524182" lon="10.398828524628748"><ele>184.0</ele><time>2026-04-20T15:26:28Z</time></trkpt><trkpt lat="45.55329575971463" lon="10.398748794683817"><ele>184.0</ele><time>2026-04-20T15:26:30Z</time></trkpt><trkpt lat="45.55321627027581" lon="10.398714909044509"><ele>184.0</ele><time>2026-04-20T15:26:32Z</time></trkpt><trkpt lat="45.553136268297926" lon="10.398710026424403"><ele>184.0</ele><time>2026-04-20T15:26:34Z</time></trkpt><trkpt lat="45.55306833727248" lon="10.398743482350001"><ele>184.0</ele><time>2026-04-20T15:26:36Z</time></trkpt><trkpt lat="45.55297682407892" lon="10.398790959524367"><ele>184.0</ele><time>2026-04-20T15:26:39Z</time></trkpt><trkpt lat="45.55290125495652" lon="10.398837677693987"><ele>184.0</ele><time>2026-04-20T15:26:41Z</time></trkpt><trkpt lat="45.55281421310092" lon="10.398860554412998"><ele>184.0</ele><time>2026-04-20T15:26:43Z</time></trkpt><trkpt lat="45.552730229878435" lon="10.398903596371495"><ele>184.0</ele><time>2026-04-20T15:26:45Z</time></trkpt><trkpt lat="45.55263712556161" lon="10.39895131311745"><ele>184.0</ele><time>2026-04-20T15:26:47Z</time></trkpt><trkpt lat="45.55256339988113" lon="10.398989098861257"><ele>184.0</ele><time>2026-04-20T15:26:49Z</time></trkpt><trkpt lat="45.552486004875256" lon="10.399079621534694"><ele>184.0</ele><time>2026-04-20T15:26:51Z</time></trkpt><trkpt lat="45.55241815161166" lon="10.399146280992133"><ele>184.0</ele><time>2026-04-20T15:26:53Z</time></trkpt><trkpt lat="45.55236419667283" lon="10.399240346239624"><ele>184.0</ele><time>2026-04-20T15:26:55Z</time></trkpt><trkpt lat="45.55233748406296" lon="10.39935284253961"><ele>184.0</ele><time>2026-04-20T15:26:57Z</time></trkpt><trkpt lat="45.55234138046875" lon="10.399463501323572"><ele>184.0</ele><time>2026-04-20T15:26:59Z</time></trkpt><trkpt lat="45.55236189844173" lon="10.399558749446484"><ele>184.0</ele><time>2026-04-20T15:27:01Z</time></trkpt><trkpt lat="45.552370307814705" lon="10.399669029148686"><ele>184.0</ele><time>2026-04-20T15:27:03Z</time></trkpt><trkpt lat="45.55236298731706" lon="10.399786267869828"><ele>184.0</ele><time>2026-04-20T15:27:05Z</time></trkpt><trkpt lat="45.552325088376115" lon="10.39989710506897"><ele>184.0</ele><time>2026-04-20T15:27:07Z</time></trkpt><trkpt lat="45.55225021430966" lon="10.399981597777938"><ele>184.0</ele><time>2026-04-20T15:27:09Z</time></trkpt><trkpt lat="45.552189777389124" lon="10.400057694765627"><ele>183.83333333333334</ele><time>2026-04-20T15:27:11Z</time></trkpt><trkpt lat="45.55212970967899" lon="10.40012226793251"><ele>183.66666666666669</ele><time>2026-04-20T15:27:13Z</time></trkpt><trkpt lat="45.55206851308607" lon="10.400195214126663"><ele>183.5</ele><time>2026-04-20T15:27:15Z</time></trkpt><trkpt lat="45.551997544226516" lon="10.400250024071697"><ele>183.33333333333334</ele><time>2026-04-20T15:27:17Z</time></trkpt><trkpt lat="45.55193332081313" lon="10.400319066616031"><ele>183.16666666666666</ele><time>2026-04-20T15:27:19Z</time></trkpt><trkpt lat="45.55198387150637" lon="10.4004854735566"><ele>183.0</ele><time>2026-04-20T15:27:21Z</time></trkpt><trkpt lat="45.55203372975709" lon="10.400582083366798"><ele>182.8</ele><time>2026-04-20T15:27:23Z</time></trkpt><trkpt lat="45.5520802035049" lon="10.400683379958005"><ele>182.60000000000002</ele><time>2026-04-20T15:27:25Z</time></trkpt><trkpt lat="45.55211874160742" lon="10.40078524326158"><ele>182.39999999999998</ele><time>2026-04-20T15:27:27Z</time></trkpt><trkpt lat="45.5521684580178" lon="10.40088945708627"><ele>182.2</ele><time>2026-04-20T15:27:29Z</time></trkpt><trkpt lat="45.552226469616656" lon="10.401007502552522"><ele>182.0</ele><time>2026-04-20T15:27:31Z</time></trkpt><trkpt lat="45.55228961655396" lon="10.401117240459415"><ele>182.0</ele><time>2026-04-20T15:27:33Z</time></trkpt><trkpt lat="45.552341223771975" lon="10.40125242409105"><ele>182.0</ele><time>2026-04-20T15:27:35Z</time></trkpt><trkpt lat="45.55238779183133" lon="10.40134734246295"><ele>182.0</ele><time>2026-04-20T15:27:37Z</time></trkpt><trkpt lat="45.55243096825085" lon="10.401435347585002"><ele>182.0</ele><time>2026-04-20T15:27:39Z</time></trkpt><trkpt lat="45.552477699536794" lon="10.401530598599235"><ele>182.0</ele><time>2026-04-20T15:27:41Z</time></trkpt><trkpt lat="45.55252553902132" lon="10.401627713374443"><ele>182.0</ele><time>2026-04-20T15:27:43Z</time></trkpt><trkpt lat="45.55258292984566" lon="10.401743060628679"><ele>182.0</ele><time>2026-04-20T15:27:45Z</time></trkpt><trkpt lat="45.55263497222789" lon="10.401807711994163"><ele>182.0</ele><time>2026-04-20T15:27:47Z</time></trkpt><trkpt lat="45.55269063062461" lon="10.401893915128804"><ele>182.0</ele><time>2026-04-20T15:27:50Z</time></trkpt><trkpt lat="45.55274665797437" lon="10.401847453876117"><ele>182.0</ele><time>2026-04-20T15:27:52Z</time></trkpt><trkpt lat="45.552800404826066" lon="10.401785143323094"><ele>182.0</ele><time>2026-04-20T15:27:54Z</time></trkpt><trkpt lat="45.55287596616184" lon="10.401708521168064"><ele>182.0</ele><time>2026-04-20T15:27:56Z</time></trkpt><trkpt lat="45.552936968924925" lon="10.401620480486782"><ele>183.0</ele><time>2026-04-20T15:27:58Z</time></trkpt><trkpt lat="45.5530081641831" lon="10.401532802846894"><ele>184.0</ele><time>2026-04-20T15:28:00Z</time></trkpt><trkpt lat="45.553070373810314" lon="10.401452465957531"><ele>185.0</ele><time>2026-04-20T15:28:02Z</time></trkpt><trkpt lat="45.553138021035764" lon="10.401376851623061"><ele>186.0</ele><time>2026-04-20T15:28:04Z</time></trkpt><trkpt lat="45.55322532369258" lon="10.401341541835901"><ele>187.0</ele><time>2026-04-20T15:28:07Z</time></trkpt><trkpt lat="45.553287233014345" lon="10.401419719812498"><ele>188.0</ele><time>2026-04-20T15:28:09Z</time></trkpt><trkpt lat="45.55333483264526" lon="10.401512147307075"><ele>188.0</ele><time>2026-04-20T15:28:11Z</time></trkpt><trkpt lat="45.55336733723188" lon="10.401613392839602"><ele>188.0</ele><time>2026-04-20T15:28:13Z</time></trkpt><trkpt lat="45.553416298742086" lon="10.401706273646111"><ele>188.0</ele><time>2026-04-20T15:28:15Z</time></trkpt><trkpt lat="45.553462851779514" lon="10.401793877279715"><ele>188.0</ele><time>2026-04-20T15:28:17Z</time></trkpt><trkpt lat="45.55349408706219" lon="10.401887583599555"><ele>188.0</ele><time>2026-04-20T15:28:19Z</time></trkpt><trkpt lat="45.553512704395544" lon="10.402014244272365"><ele>188.0</ele><time>2026-04-20T15:28:21Z</time></trkpt><trkpt lat="45.55354324178613" lon="10.402120414131268"><ele>187.2</ele><time>2026-04-20T15:28:23Z</time></trkpt><trkpt lat="45.553586876586486" lon="10.402216212839068"><ele>186.4</ele><time>2026-04-20T15:28:25Z</time></trkpt><trkpt lat="45.553633252467385" lon="10.402338085137723"><ele>185.6</ele><time>2026-04-20T15:28:27Z</time></trkpt><trkpt lat="45.55368204189994" lon="10.402469088094843"><ele>184.79999999999998</ele><time>2026-04-20T15:28:29Z</time></trkpt><trkpt lat="45.55372672197293" lon="10.402543865190827"><ele>184.0</ele><time>2026-04-20T15:28:30Z</time></trkpt><trkpt lat="45.553794211869075" lon="10.40268604414397"><ele>185.66666666666669</ele><time>2026-04-20T15:28:32Z</time></trkpt><trkpt lat="45.55382884500966" lon="10.40276306310382"><ele>187.33333333333334</ele><time>2026-04-20T15:28:33Z</time></trkpt><trkpt lat="45.553867689661246" lon="10.402839119605082"><ele>189.0</ele><time>2026-04-20T15:28:34Z</time></trkpt><trkpt lat="45.55390132956555" lon="10.402916026030972"><ele>190.66666666666669</ele><time>2026-04-20T15:28:35Z</time></trkpt><trkpt lat="45.553981820713126" lon="10.40305279284442"><ele>192.33333333333334</ele><time>2026-04-20T15:28:37Z</time></trkpt><trkpt lat="45.554047567023325" lon="10.403194261253045"><ele>194.0</ele><time>2026-04-20T15:28:39Z</time></trkpt><trkpt lat="45.554083973779804" lon="10.403269149091459"><ele>194.0</ele><time>2026-04-20T15:28:40Z</time></trkpt><trkpt lat="45.55411727987723" lon="10.403347680127553"><ele>194.0</ele><time>2026-04-20T15:28:41Z</time></trkpt><trkpt lat="45.554170822533266" lon="10.403492775535826"><ele>194.0</ele><time>2026-04-20T15:28:43Z</time></trkpt><trkpt lat="45.554226976352076" lon="10.403611315278955"><ele>194.0</ele><time>2026-04-20T15:28:45Z</time></trkpt><trkpt lat="45.55428267051436" lon="10.403731551407429"><ele>194.0</ele><time>2026-04-20T15:28:47Z</time></trkpt><trkpt lat="45.554322655030816" lon="10.403848782826543"><ele>193.16666666666669</ele><time>2026-04-20T15:28:49Z</time></trkpt><trkpt lat="45.55437435825704" lon="10.403941987756612"><ele>192.33333333333334</ele><time>2026-04-20T15:28:51Z</time></trkpt><trkpt lat="45.55439361855977" lon="10.404054631257099"><ele>191.5</ele><time>2026-04-20T15:28:53Z</time></trkpt><trkpt lat="45.55443260699161" lon="10.404195710529192"><ele>190.66666666666669</ele><time>2026-04-20T15:28:55Z</time></trkpt><trkpt lat="45.55445593030538" lon="10.404280593710718"><ele>189.83333333333334</ele><time>2026-04-20T15:28:56Z</time></trkpt><trkpt lat="45.55448303021571" lon="10.404369659994273"><ele>189.0</ele><time>2026-04-20T15:28:57Z</time></trkpt><trkpt lat="45.55450173160366" lon="10.404467767015017"><ele>189.0</ele><time>2026-04-20T15:28:58Z</time></trkpt><trkpt lat="45.55453374381936" lon="10.404550929211709"><ele>189.0</ele><time>2026-04-20T15:28:59Z</time></trkpt><trkpt lat="45.55453768623253" lon="10.40465186690378"><ele>189.0</ele><time>2026-04-20T15:29:00Z</time></trkpt><trkpt lat="45.55456431279972" lon="10.404823438738228"><ele>189.0</ele><time>2026-04-20T15:29:02Z</time></trkpt><trkpt lat="45.554610215825804" lon="10.40498377483534"><ele>189.0</ele><time>2026-04-20T15:29:04Z</time></trkpt><trkpt lat="45.554647206622185" lon="10.405141083276057"><ele>188.39999999999998</ele><time>2026-04-20T15:29:06Z</time></trkpt><trkpt lat="45.554687560355184" lon="10.40529155760888"><ele>187.8</ele><time>2026-04-20T15:29:08Z</time></trkpt><trkpt lat="45.5547239216023" lon="10.405445384406283"><ele>187.2</ele><time>2026-04-20T15:29:10Z</time></trkpt><trkpt lat="45.55474913509332" lon="10.40559026546739"><ele>186.60000000000002</ele><time>2026-04-20T15:29:12Z</time></trkpt><trkpt lat="45.554788138857056" lon="10.405731767132327"><ele>186.0</ele><time>2026-04-20T15:29:14Z</time></trkpt><trkpt lat="45.554853655685065" lon="10.405848829386711"><ele>186.0</ele><time>2026-04-20T15:29:16Z</time></trkpt><trkpt lat="45.554953457522544" lon="10.405906559932687"><ele>186.0</ele><time>2026-04-20T15:29:18Z</time></trkpt><trkpt lat="45.55506681651345" lon="10.405946497119558"><ele>186.0</ele><time>2026-04-20T15:29:20Z</time></trkpt><trkpt lat="45.5551720716776" lon="10.40600203992836"><ele>186.0</ele><time>2026-04-20T15:29:22Z</time></trkpt><trkpt lat="45.555266643071555" lon="10.406097390020113"><ele>186.0</ele><time>2026-04-20T15:29:24Z</time></trkpt><trkpt lat="45.555352712180095" lon="10.406207347412847"><ele>186.0</ele><time>2026-04-20T15:29:26Z</time></trkpt><trkpt lat="45.555444996610795" lon="10.406297614051837"><ele>186.0</ele><time>2026-04-20T15:29:28Z</time></trkpt><trkpt lat="45.55552713590707" lon="10.406396696729415"><ele>186.0</ele><time>2026-04-20T15:29:30Z</time></trkpt><trkpt lat="45.55561981974023" lon="10.40646367764175"><ele>186.0</ele><time>2026-04-20T15:29:32Z</time></trkpt><trkpt lat="45.555691783744216" lon="10.406544054300738"><ele>187.0</ele><time>2026-04-20T15:29:34Z</time></trkpt><trkpt lat="45.55576775454527" lon="10.406627483466183"><ele>188.0</ele><time>2026-04-20T15:29:36Z</time></trkpt><trkpt lat="45.5558377312795" lon="10.406733501734662"><ele>189.0</ele><time>2026-04-20T15:29:38Z</time></trkpt><trkpt lat="45.55590316402835" lon="10.406850222225737"><ele>190.0</ele><time>2026-04-20T15:29:40Z</time></trkpt><trkpt lat="45.55598280319074" lon="10.406945814083324"><ele>191.0</ele><time>2026-04-20T15:29:42Z</time></trkpt><trkpt lat="45.556059523044695" lon="10.407050489895656"><ele>191.0</ele><time>2026-04-20T15:29:44Z</time></trkpt><trkpt lat="45.55612910440671" lon="10.407138067738599"><ele>191.0</ele><time>2026-04-20T15:29:46Z</time></trkpt><trkpt lat="45.556196042556856" lon="10.407201452855668"><ele>191.0</ele><time>2026-04-20T15:29:48Z</time></trkpt><trkpt lat="45.55624583341508" lon="10.407274973481696"><ele>191.0</ele><time>2026-04-20T15:29:50Z</time></trkpt><trkpt lat="45.55629969006436" lon="10.407326813094302"><ele>191.0</ele><time>2026-04-20T15:29:52Z</time></trkpt><trkpt lat="45.556346932810804" lon="10.407392022567555"><ele>191.0</ele><time>2026-04-20T15:29:54Z</time></trkpt><trkpt lat="45.5564070283692" lon="10.40743797279766"><ele>191.0</ele><time>2026-04-20T15:29:57Z</time></trkpt><trkpt lat="45.55643662306626" lon="10.407534141089833"><ele>190.20000000000002</ele><time>2026-04-20T15:29:59Z</time></trkpt><trkpt lat="45.55644278308011" lon="10.407639787965097"><ele>189.4</ele><time>2026-04-20T15:30:01Z</time></trkpt><trkpt lat="45.55639533363605" lon="10.407721147772191"><ele>188.6</ele><time>2026-04-20T15:30:02Z</time></trkpt><trkpt lat="45.55631612576835" lon="10.407807637059765"><ele>187.8</ele><time>2026-04-20T15:30:04Z</time></trkpt><trkpt lat="45.556238799597125" lon="10.40792388177139"><ele>187.0</ele><time>2026-04-20T15:30:06Z</time></trkpt><trkpt lat="45.556169138257125" lon="10.40802685825712"><ele>187.0</ele><time>2026-04-20T15:30:08Z</time></trkpt><trkpt lat="45.55608915260681" lon="10.408116338383767"><ele>187.0</ele><time>2026-04-20T15:30:10Z</time></trkpt><trkpt lat="45.55602059148332" lon="10.408189124291095"><ele>187.0</ele><time>2026-04-20T15:30:12Z</time></trkpt><trkpt lat="45.55594123798561" lon="10.408263331911087"><ele>187.0</ele><time>2026-04-20T15:30:14Z</time></trkpt><trkpt lat="45.55587601025247" lon="10.408355812038893"><ele>187.0</ele><time>2026-04-20T15:30:16Z</time></trkpt><trkpt lat="45.55579685511794" lon="10.408446683943982"><ele>187.0</ele><time>2026-04-20T15:30:18Z</time></trkpt><trkpt lat="45.55572555564923" lon="10.408535827721328"><ele>187.0</ele><time>2026-04-20T15:30:20Z</time></trkpt><trkpt lat="45.55564917642354" lon="10.408627565651805"><ele>187.0</ele><time>2026-04-20T15:30:22Z</time></trkpt><trkpt lat="45.55557670473632" lon="10.408712865004889"><ele>187.0</ele><time>2026-04-20T15:30:24Z</time></trkpt><trkpt lat="45.55550823591201" lon="10.40879782414299"><ele>187.0</ele><time>2026-04-20T15:30:26Z</time></trkpt><trkpt lat="45.55542846827169" lon="10.40888873178975"><ele>186.66666666666669</ele><time>2026-04-20T15:30:28Z</time></trkpt><trkpt lat="45.55536521684441" lon="10.40898153193296"><ele>186.33333333333334</ele><time>2026-04-20T15:30:30Z</time></trkpt><trkpt lat="45.55530127173687" lon="10.409039583674831"><ele>186.0</ele><time>2026-04-20T15:30:32Z</time></trkpt><trkpt lat="45.55526240553528" lon="10.409116233505104"><ele>185.66666666666666</ele><time>2026-04-20T15:30:34Z</time></trkpt><trkpt lat="45.5552031069674" lon="10.409161830558556"><ele>185.33333333333331</ele><time>2026-04-20T15:30:36Z</time></trkpt><trkpt lat="45.555101764311004" lon="10.409207293294287"><ele>185.0</ele><time>2026-04-20T15:30:40Z</time></trkpt><trkpt lat="45.55499681802296" lon="10.409228157219713"><ele>185.0</ele><time>2026-04-20T15:30:42Z</time></trkpt><trkpt lat="45.55490858753349" lon="10.409235569271337"><ele>185.0</ele><time>2026-04-20T15:30:44Z</time></trkpt><trkpt lat="45.55487598407424" lon="10.409410379458617"><ele>185.0</ele><time>2026-04-20T15:30:45Z</time></trkpt><trkpt lat="45.55480579105977" lon="10.409511409402356"><ele>185.0</ele><time>2026-04-20T15:30:47Z</time></trkpt><trkpt lat="45.554721477510554" lon="10.40956756386213"><ele>185.0</ele><time>2026-04-20T15:30:49Z</time></trkpt><trkpt lat="45.554634694734744" lon="10.409620673832004"><ele>185.0</ele><time>2026-04-20T15:30:51Z</time></trkpt><trkpt lat="45.55455859287908" lon="10.409688120015502"><ele>185.0</ele><time>2026-04-20T15:30:53Z</time></trkpt><trkpt lat="45.55448033075911" lon="10.409752297717407"><ele>185.0</ele><time>2026-04-20T15:30:55Z</time></trkpt><trkpt lat="45.55438105174612" lon="10.409806778366868"><ele>185.0</ele><time>2026-04-20T15:30:57Z</time></trkpt><trkpt lat="45.554277432151395" lon="10.409860230512662"><ele>185.0</ele><time>2026-04-20T15:30:59Z</time></trkpt><trkpt lat="45.55417703573977" lon="10.40991252499714"><ele>185.0</ele><time>2026-04-20T15:31:01Z</time></trkpt><trkpt lat="45.554090977288816" lon="10.409961113213855"><ele>185.0</ele><time>2026-04-20T15:31:03Z</time></trkpt><trkpt lat="45.554020236422424" lon="10.410070595443027"><ele>185.0</ele><time>2026-04-20T15:31:05Z</time></trkpt><trkpt lat="45.5539422753681" lon="10.410129386549034"><ele>185.0</ele><time>2026-04-20T15:31:07Z</time></trkpt><trkpt lat="45.55387307903311" lon="10.410200071195689"><ele>185.0</ele><time>2026-04-20T15:31:09Z</time></trkpt><trkpt lat="45.55379829119364" lon="10.410262940730842"><ele>185.0</ele><time>2026-04-20T15:31:11Z</time></trkpt><trkpt lat="45.553719922830815" lon="10.410327700544594"><ele>185.0</ele><time>2026-04-20T15:31:13Z</time></trkpt><trkpt lat="45.5536392833404" lon="10.410387501965252"><ele>185.0</ele><time>2026-04-20T15:31:15Z</time></trkpt><trkpt lat="45.55357485994899" lon="10.41043646229156"><ele>185.0</ele><time>2026-04-20T15:31:17Z</time></trkpt><trkpt lat="45.55350460776728" lon="10.410517457027229"><ele>185.0</ele><time>2026-04-20T15:31:19Z</time></trkpt><trkpt lat="45.55343038036452" lon="10.410592275484083"><ele>185.0</ele><time>2026-04-20T15:31:21Z</time></trkpt><trkpt lat="45.553358228704596" lon="10.410665423874844"><ele>184.83333333333331</ele><time>2026-04-20T15:31:23Z</time></trkpt><trkpt lat="45.5532867844083" lon="10.41073052339463"><ele>184.66666666666666</ele><time>2026-04-20T15:31:25Z</time></trkpt><trkpt lat="45.553206530979224" lon="10.410796183847953"><ele>184.5</ele><time>2026-04-20T15:31:27Z</time></trkpt><trkpt lat="45.553133607481335" lon="10.410857394981164"><ele>184.33333333333334</ele><time>2026-04-20T15:31:29Z</time></trkpt><trkpt lat="45.553065182330904" lon="10.410919169149714"><ele>184.16666666666669</ele><time>2026-04-20T15:31:31Z</time></trkpt><trkpt lat="45.55299576994024" lon="10.410996161316886"><ele>184.0</ele><time>2026-04-20T15:31:33Z</time></trkpt><trkpt lat="45.552930536626775" lon="10.411052483701736"><ele>184.0</ele><time>2026-04-20T15:31:35Z</time></trkpt><trkpt lat="45.5528479877454" lon="10.411120030808855"><ele>184.0</ele><time>2026-04-20T15:31:38Z</time></trkpt><trkpt lat="45.55278472929074" lon="10.411185870260065"><ele>184.0</ele><time>2026-04-20T15:31:40Z</time></trkpt><trkpt lat="45.55272429592472" lon="10.41123130247006"><ele>184.0</ele><time>2026-04-20T15:31:42Z</time></trkpt><trkpt lat="45.552665886050136" lon="10.411293666325587"><ele>184.0</ele><time>2026-04-20T15:31:44Z</time></trkpt><trkpt lat="45.552589403636254" lon="10.411346482206733"><ele>184.0</ele><time>2026-04-20T15:31:46Z</time></trkpt><trkpt lat="45.552514338599416" lon="10.411416777707306"><ele>184.0</ele><time>2026-04-20T15:31:48Z</time></trkpt><trkpt lat="45.55244309363064" lon="10.411472359630414"><ele>184.0</ele><time>2026-04-20T15:31:50Z</time></trkpt><trkpt lat="45.55237445017222" lon="10.411536363655937"><ele>184.0</ele><time>2026-04-20T15:31:52Z</time></trkpt><trkpt lat="45.55230167764561" lon="10.411602260401914"><ele>184.0</ele><time>2026-04-20T15:31:54Z</time></trkpt><trkpt lat="45.55223455993063" lon="10.411662723477829"><ele>184.0</ele><time>2026-04-20T15:31:56Z</time></trkpt><trkpt lat="45.55217272179489" lon="10.411702685574395"><ele>184.0</ele><time>2026-04-20T15:31:58Z</time></trkpt><trkpt lat="45.552096228425086" lon="10.411776160099379"><ele>183.85714285714286</ele><time>2026-04-20T15:32:01Z</time></trkpt><trkpt lat="45.55202755320045" lon="10.411833099255169"><ele>183.7142857142857</ele><time>2026-04-20T15:32:03Z</time></trkpt><trkpt lat="45.55196520963779" lon="10.411894241380367"><ele>183.57142857142856</ele><time>2026-04-20T15:32:06Z</time></trkpt><trkpt lat="45.551901039330936" lon="10.411948229030537"><ele>183.42857142857144</ele><time>2026-04-20T15:32:09Z</time></trkpt><trkpt lat="45.55186406014586" lon="10.412031543503721"><ele>183.28571428571428</ele><time>2026-04-20T15:32:13Z</time></trkpt><trkpt lat="45.5519275847693" lon="10.41200707263021"><ele>183.14285714285714</ele><time>2026-04-20T15:32:33Z</time></trkpt><trkpt lat="45.551962595697056" lon="10.412090292394016"><ele>183.0</ele><time>2026-04-20T15:32:36Z</time></trkpt><trkpt lat="45.55199431883836" lon="10.412197569430704"><ele>184.0</ele><time>2026-04-20T15:32:38Z</time></trkpt><trkpt lat="45.552054226027906" lon="10.412318622981877"><ele>185.0</ele><time>2026-04-20T15:32:40Z</time></trkpt><trkpt lat="45.552091279351934" lon="10.412394782568033"><ele>186.0</ele><time>2026-04-20T15:32:41Z</time></trkpt><trkpt lat="45.55213082167978" lon="10.412530815969403"><ele>187.0</ele><time>2026-04-20T15:32:43Z</time></trkpt><trkpt lat="45.55220717959945" lon="10.412643841700016"><ele>188.0</ele><time>2026-04-20T15:32:45Z</time></trkpt><trkpt lat="45.55229409869194" lon="10.412763942375316"><ele>188.0</ele><time>2026-04-20T15:32:47Z</time></trkpt><trkpt lat="45.55236297796204" lon="10.412858436796393"><ele>188.0</ele><time>2026-04-20T15:32:49Z</time></trkpt><trkpt lat="45.55242150612754" lon="10.412920436628914"><ele>188.0</ele><time>2026-04-20T15:32:50Z</time></trkpt><trkpt lat="45.55247457289662" lon="10.413027039201092"><ele>188.0</ele><time>2026-04-20T15:32:52Z</time></trkpt><trkpt lat="45.5525175478834" lon="10.413129451749914"><ele>188.0</ele><time>2026-04-20T15:32:54Z</time></trkpt><trkpt lat="45.552503480962024" lon="10.41322328552994"><ele>188.0</ele><time>2026-04-20T15:32:56Z</time></trkpt><trkpt lat="45.55241324864325" lon="10.413317195405206"><ele>188.0</ele><time>2026-04-20T15:32:59Z</time></trkpt><trkpt lat="45.552357161518756" lon="10.41338648409296"><ele>188.0</ele><time>2026-04-20T15:33:00Z</time></trkpt><trkpt lat="45.55227731493389" lon="10.413491711491476"><ele>188.0</ele><time>2026-04-20T15:33:02Z</time></trkpt><trkpt lat="45.55223191727204" lon="10.413556817617552"><ele>188.0</ele><time>2026-04-20T15:33:03Z</time></trkpt><trkpt lat="45.55217478871491" lon="10.413652635035794"><ele>188.0</ele><time>2026-04-20T15:33:04Z</time></trkpt><trkpt lat="45.55214049072972" lon="10.413730895296323"><ele>188.0</ele><time>2026-04-20T15:33:05Z</time></trkpt><trkpt lat="45.552108075908066" lon="10.413811788501668"><ele>188.0</ele><time>2026-04-20T15:33:06Z</time></trkpt><trkpt lat="45.5520707821498" lon="10.413997344051904"><ele>188.0</ele><time>2026-04-20T15:33:08Z</time></trkpt><trkpt lat="45.55203989885233" lon="10.414093065817298"><ele>188.0</ele><time>2026-04-20T15:33:09Z</time></trkpt><trkpt lat="45.552011428096186" lon="10.41419766005125"><ele>188.0</ele><time>2026-04-20T15:33:10Z</time></trkpt><trkpt lat="45.55200430520823" lon="10.41429213270109"><ele>188.0</ele><time>2026-04-20T15:33:11Z</time></trkpt><trkpt lat="45.551999979834974" lon="10.414390629290514"><ele>188.0</ele><time>2026-04-20T15:33:12Z</time></trkpt><trkpt lat="45.55198464755798" lon="10.414488753765696"><ele>188.0</ele><time>2026-04-20T15:33:13Z</time></trkpt><trkpt lat="45.55197062904513" lon="10.414597294208585"><ele>188.0</ele><time>2026-04-20T15:33:14Z</time></trkpt><trkpt lat="45.5519562661775" lon="10.414703513172588"><ele>188.0</ele><time>2026-04-20T15:33:15Z</time></trkpt><trkpt lat="45.55194145692375" lon="10.414809705827206"><ele>188.0</ele><time>2026-04-20T15:33:16Z</time></trkpt><trkpt lat="45.55193115248088" lon="10.41490880287668"><ele>188.0</ele><time>2026-04-20T15:33:17Z</time></trkpt><trkpt lat="45.55192041100588" lon="10.415005014888463"><ele>188.0</ele><time>2026-04-20T15:33:18Z</time></trkpt><trkpt lat="45.55189866654436" lon="10.415177971823766"><ele>187.83333333333331</ele><time>2026-04-20T15:33:20Z</time></trkpt><trkpt lat="45.55186898073284" lon="10.415341942365453"><ele>187.66666666666666</ele><time>2026-04-20T15:33:22Z</time></trkpt><trkpt lat="45.551850544925394" lon="10.415445007914132"><ele>187.5</ele><time>2026-04-20T15:33:23Z</time></trkpt><trkpt lat="45.55182698333758" lon="10.41554339744634"><ele>187.33333333333334</ele><time>2026-04-20T15:33:24Z</time></trkpt><trkpt lat="45.55180529402467" lon="10.415632287801149"><ele>187.16666666666669</ele><time>2026-04-20T15:33:25Z</time></trkpt><trkpt lat="45.55176503861629" lon="10.415776415351969"><ele>187.0</ele><time>2026-04-20T15:33:27Z</time></trkpt><trkpt lat="45.55172512069783" lon="10.415928210709126"><ele>186.83333333333334</ele><time>2026-04-20T15:33:29Z</time></trkpt><trkpt lat="45.55169153006564" lon="10.416004945178633"><ele>186.66666666666669</ele><time>2026-04-20T15:33:30Z</time></trkpt><trkpt lat="45.55167891285383" lon="10.416152726693898"><ele>186.5</ele><time>2026-04-20T15:33:32Z</time></trkpt><trkpt lat="45.55166350679212" lon="10.416300808653176"><ele>186.33333333333334</ele><time>2026-04-20T15:33:34Z</time></trkpt><trkpt lat="45.55166159445364" lon="10.41639193174923"><ele>186.16666666666666</ele><time>2026-04-20T15:33:36Z</time></trkpt><trkpt lat="45.55167859982802" lon="10.416483623392054"><ele>186.0</ele><time>2026-04-20T15:33:39Z</time></trkpt><trkpt lat="45.55166053802519" lon="10.416605080871681"><ele>186.0</ele><time>2026-04-20T15:33:42Z</time></trkpt><trkpt lat="45.5516550211901" lon="10.416698144301208"><ele>186.0</ele><time>2026-04-20T15:33:44Z</time></trkpt><trkpt lat="45.55162175234394" lon="10.416791832075274"><ele>186.0</ele><time>2026-04-20T15:33:46Z</time></trkpt><trkpt lat="45.55159871704979" lon="10.416923796538999"><ele>186.0</ele><time>2026-04-20T15:33:48Z</time></trkpt><trkpt lat="45.551581010515825" lon="10.41704977910122"><ele>186.0</ele><time>2026-04-20T15:33:50Z</time></trkpt><trkpt lat="45.55156432349077" lon="10.417181647012226"><ele>186.0</ele><time>2026-04-20T15:33:52Z</time></trkpt><trkpt lat="45.551541546629544" lon="10.417303657513026"><ele>186.5</ele><time>2026-04-20T15:33:54Z</time></trkpt><trkpt lat="45.551525290723106" lon="10.41743156824782"><ele>187.0</ele><time>2026-04-20T15:33:56Z</time></trkpt><trkpt lat="45.55152062847737" lon="10.417549684123129"><ele>187.5</ele><time>2026-04-20T15:33:58Z</time></trkpt><trkpt lat="45.55147525245083" lon="10.41764198142346"><ele>188.0</ele><time>2026-04-20T15:34:00Z</time></trkpt><trkpt lat="45.55142605730324" lon="10.41774425187329"><ele>188.5</ele><time>2026-04-20T15:34:03Z</time></trkpt><trkpt lat="45.551360355877954" lon="10.417848608768436"><ele>189.0</ele><time>2026-04-20T15:34:05Z</time></trkpt><trkpt lat="45.551290880464066" lon="10.417998251596599"><ele>189.14285714285714</ele><time>2026-04-20T15:34:07Z</time></trkpt><trkpt lat="45.55125738248573" lon="10.4180777582893"><ele>189.28571428571428</ele><time>2026-04-20T15:34:08Z</time></trkpt><trkpt lat="45.551211348287126" lon="10.418150984374497"><ele>189.42857142857144</ele><time>2026-04-20T15:34:09Z</time></trkpt><trkpt lat="45.55115304131936" lon="10.418226748111277"><ele>189.57142857142856</ele><time>2026-04-20T15:34:10Z</time></trkpt><trkpt lat="45.55109849291405" lon="10.418303931269739"><ele>189.71428571428572</ele><time>2026-04-20T15:34:11Z</time></trkpt><trkpt lat="45.55105238906389" lon="10.418382307476914"><ele>189.85714285714286</ele><time>2026-04-20T15:34:12Z</time></trkpt><trkpt lat="45.55099611828762" lon="10.418464382807265"><ele>190.0</ele><time>2026-04-20T15:34:13Z</time></trkpt><trkpt lat="45.55094033812041" lon="10.418547385033925"><ele>190.0</ele><time>2026-04-20T15:34:14Z</time></trkpt><trkpt lat="45.55088226321784" lon="10.418631772706325"><ele>190.0</ele><time>2026-04-20T15:34:15Z</time></trkpt><trkpt lat="45.5508227079147" lon="10.418716513700092"><ele>190.0</ele><time>2026-04-20T15:34:16Z</time></trkpt><trkpt lat="45.55076465157949" lon="10.418802229328495"><ele>190.0</ele><time>2026-04-20T15:34:17Z</time></trkpt><trkpt lat="45.55070856208754" lon="10.418895290230537"><ele>190.0</ele><time>2026-04-20T15:34:18Z</time></trkpt><trkpt lat="45.550649323990015" lon="10.418983333355325"><ele>190.0</ele><time>2026-04-20T15:34:19Z</time></trkpt><trkpt lat="45.55058668592992" lon="10.419062090532446"><ele>189.83333333333334</ele><time>2026-04-20T15:34:20Z</time></trkpt><trkpt lat="45.5505283361845" lon="10.419141619195749"><ele>189.66666666666669</ele><time>2026-04-20T15:34:21Z</time></trkpt><trkpt lat="45.550477617386065" lon="10.41922673464235"><ele>189.5</ele><time>2026-04-20T15:34:22Z</time></trkpt><trkpt lat="45.55042326440174" lon="10.419303901449613"><ele>189.33333333333334</ele><time>2026-04-20T15:34:23Z</time></trkpt><trkpt lat="45.550368086830076" lon="10.419384076270521"><ele>189.16666666666666</ele><time>2026-04-20T15:34:24Z</time></trkpt><trkpt lat="45.550319626982315" lon="10.41945362305469"><ele>189.0</ele><time>2026-04-20T15:34:25Z</time></trkpt><trkpt lat="45.5502713524444" lon="10.419529749070646"><ele>188.83333333333334</ele><time>2026-04-20T15:34:26Z</time></trkpt><trkpt lat="45.550225907873035" lon="10.419603764559435"><ele>188.66666666666666</ele><time>2026-04-20T15:34:27Z</time></trkpt><trkpt lat="45.550184908886784" lon="10.419672933978244"><ele>188.5</ele><time>2026-04-20T15:34:28Z</time></trkpt><trkpt lat="45.550138248199" lon="10.419734976060338"><ele>188.33333333333331</ele><time>2026-04-20T15:34:29Z</time></trkpt><trkpt lat="45.55005013753888" lon="10.419855290210807"><ele>188.16666666666666</ele><time>2026-04-20T15:34:31Z</time></trkpt><trkpt lat="45.549975397970954" lon="10.41996437705185"><ele>188.0</ele><time>2026-04-20T15:34:33Z</time></trkpt><trkpt lat="45.549576665465246" lon="10.42026172147604"><ele>190.0</ele><time>2026-04-20T15:34:39Z</time></trkpt><trkpt lat="45.549530919593394" lon="10.420193557261664"><ele>190.0</ele><time>2026-04-20T15:34:42Z</time></trkpt><trkpt lat="45.5495547760135" lon="10.420101382536737"><ele>190.0</ele><time>2026-04-20T15:34:46Z</time></trkpt></trkseg></trk></gpx>